<?xml version="1.0" encoding="UTF-8" standalone="no" ?>
<gpx xmlns="http://www.topografix.com/GPX/1/1" xmlns:xsi="http://www.w3.org/2001/XMLSchema-instance" xsi:schemaLocation="http://www.topografix.com/GPX/1/1 http://www.topografix.com/GPX/1/1/gpx.xsd" version="1.1" creator="VisuGPX - https://www.visugpx.com">
  <metadata>
    <name>circuit pardines antaillat</name>
    <desc><![CDATA[Assez facile]]></desc>
  </metadata>
  <trk>
    <name><![CDATA[2012-08-24 14:29]]></name>
    <desc><![CDATA[<h1>OruxMaps</h1><br /><hr align="center" width="480" style="height: 2px; width: 517px"/><h2>Nom: 2012-08-24 14:29</h2><br /><p>Temps de départ: 08/24/2012 14:29</p><p>Temps d'arrivée: 08/24/2012 16:07</p><p>Distance: 27,2 km (01:36)</p><p>Temps déplacement: 01:33</p><p>Vitesse moyenne: 16,9 km/h</p><p>Vitesse moyenne: 17,4 km/h</p><p>Vitess Max.: 52,3 km/h</p><p>Altitude minimale: 403 m</p><p>Altitude maximale: 610 m</p><p>Vitesse d'élévation: 642,3 m/h</p><p>Vitesse de descente: -1234,2 m/h</p><p>Gain Altitude: 563 m</p><p>Perte Altitude: -556 m</p><p>Temps d'élévation: 00:52</p><p>Temps de descente: 00:27</p><hr align="center" width="480" style="height: 2px; width: 517px"/>]]></desc>
    <trkseg>
      <trkpt lat="45.50674" lon="3.22273">
        <ele>536.48395</ele>
        <time>2012-08-24T12:31:00Z</time>
      </trkpt>
      <trkpt lat="45.5066" lon="3.22254">
        <ele>541.2262</ele>
        <time>2012-08-24T12:31:27Z</time>
      </trkpt>
      <trkpt lat="45.50656" lon="3.22225">
        <ele>538.4867</ele>
        <time>2012-08-24T12:31:33Z</time>
      </trkpt>
      <trkpt lat="45.50641" lon="3.22206">
        <ele>536.6598</ele>
        <time>2012-08-24T12:31:41Z</time>
      </trkpt>
      <trkpt lat="45.50619" lon="3.2221">
        <ele>536.104</ele>
        <time>2012-08-24T12:31:45Z</time>
      </trkpt>
      <trkpt lat="45.50611" lon="3.22181">
        <ele>536.07385</ele>
        <time>2012-08-24T12:31:49Z</time>
      </trkpt>
      <trkpt lat="45.50604" lon="3.22157">
        <ele>537.00006</ele>
        <time>2012-08-24T12:31:54Z</time>
      </trkpt>
      <trkpt lat="45.50601" lon="3.22129">
        <ele>538.8284</ele>
        <time>2012-08-24T12:32:01Z</time>
      </trkpt>
      <trkpt lat="45.50612" lon="3.22104">
        <ele>539.08844</ele>
        <time>2012-08-24T12:32:10Z</time>
      </trkpt>
      <trkpt lat="45.50626" lon="3.22083">
        <ele>542.2821</ele>
        <time>2012-08-24T12:32:17Z</time>
      </trkpt>
      <trkpt lat="45.50642" lon="3.22066">
        <ele>544.91693</ele>
        <time>2012-08-24T12:32:26Z</time>
      </trkpt>
      <trkpt lat="45.5066" lon="3.22056">
        <ele>548.1152</ele>
        <time>2012-08-24T12:32:33Z</time>
      </trkpt>
      <trkpt lat="45.50675" lon="3.22034">
        <ele>547.85425</ele>
        <time>2012-08-24T12:32:38Z</time>
      </trkpt>
      <trkpt lat="45.50678" lon="3.22008">
        <ele>548.11</ele>
        <time>2012-08-24T12:32:45Z</time>
      </trkpt>
      <trkpt lat="45.50679" lon="3.21982">
        <ele>549.01135</ele>
        <time>2012-08-24T12:32:51Z</time>
      </trkpt>
      <trkpt lat="45.50699" lon="3.2197">
        <ele>549.4979</ele>
        <time>2012-08-24T12:32:57Z</time>
      </trkpt>
      <trkpt lat="45.50718" lon="3.21971">
        <ele>550.0356</ele>
        <time>2012-08-24T12:33:00Z</time>
      </trkpt>
      <trkpt lat="45.50737" lon="3.21967">
        <ele>550.503</ele>
        <time>2012-08-24T12:33:04Z</time>
      </trkpt>
      <trkpt lat="45.50757" lon="3.21963">
        <ele>551.01605</ele>
        <time>2012-08-24T12:33:08Z</time>
      </trkpt>
      <trkpt lat="45.50775" lon="3.21963">
        <ele>552.1257</ele>
        <time>2012-08-24T12:33:12Z</time>
      </trkpt>
      <trkpt lat="45.50793" lon="3.21961">
        <ele>555.26025</ele>
        <time>2012-08-24T12:33:17Z</time>
      </trkpt>
      <trkpt lat="45.50813" lon="3.21959">
        <ele>557.3642</ele>
        <time>2012-08-24T12:33:22Z</time>
      </trkpt>
      <trkpt lat="45.50835" lon="3.21956">
        <ele>559.0717</ele>
        <time>2012-08-24T12:33:27Z</time>
      </trkpt>
      <trkpt lat="45.50857" lon="3.2195">
        <ele>559.1564</ele>
        <time>2012-08-24T12:33:32Z</time>
      </trkpt>
      <trkpt lat="45.50879" lon="3.21948">
        <ele>557.28687</ele>
        <time>2012-08-24T12:33:36Z</time>
      </trkpt>
      <trkpt lat="45.50897" lon="3.21943">
        <ele>557.3184</ele>
        <time>2012-08-24T12:33:38Z</time>
      </trkpt>
      <trkpt lat="45.50918" lon="3.21932">
        <ele>557.64984</ele>
        <time>2012-08-24T12:33:43Z</time>
      </trkpt>
      <trkpt lat="45.5094" lon="3.21922">
        <ele>557.4809</ele>
        <time>2012-08-24T12:33:47Z</time>
      </trkpt>
      <trkpt lat="45.50961" lon="3.21915">
        <ele>557.2376</ele>
        <time>2012-08-24T12:33:51Z</time>
      </trkpt>
      <trkpt lat="45.50983" lon="3.21906">
        <ele>557.5157</ele>
        <time>2012-08-24T12:33:55Z</time>
      </trkpt>
      <trkpt lat="45.51004" lon="3.21899">
        <ele>557.01935</ele>
        <time>2012-08-24T12:33:59Z</time>
      </trkpt>
      <trkpt lat="45.51021" lon="3.21889">
        <ele>556.6556</ele>
        <time>2012-08-24T12:34:02Z</time>
      </trkpt>
      <trkpt lat="45.51043" lon="3.21883">
        <ele>556.4808</ele>
        <time>2012-08-24T12:34:06Z</time>
      </trkpt>
      <trkpt lat="45.51064" lon="3.21873">
        <ele>555.5715</ele>
        <time>2012-08-24T12:34:10Z</time>
      </trkpt>
      <trkpt lat="45.51082" lon="3.21868">
        <ele>554.9682</ele>
        <time>2012-08-24T12:34:13Z</time>
      </trkpt>
      <trkpt lat="45.51104" lon="3.21862">
        <ele>554.834</ele>
        <time>2012-08-24T12:34:18Z</time>
      </trkpt>
      <trkpt lat="45.51217" lon="3.21855">
        <ele>555.784</ele>
        <time>2012-08-24T12:34:39Z</time>
      </trkpt>
      <trkpt lat="45.51261" lon="3.21866">
        <ele>556.834</ele>
        <time>2012-08-24T12:34:47Z</time>
      </trkpt>
      <trkpt lat="45.51281" lon="3.21872">
        <ele>556.9888</ele>
        <time>2012-08-24T12:34:50Z</time>
      </trkpt>
      <trkpt lat="45.51304" lon="3.21875">
        <ele>556.876</ele>
        <time>2012-08-24T12:34:56Z</time>
      </trkpt>
      <trkpt lat="45.51327" lon="3.21877">
        <ele>556.30756</ele>
        <time>2012-08-24T12:35:00Z</time>
      </trkpt>
      <trkpt lat="45.51348" lon="3.21878">
        <ele>555.80853</ele>
        <time>2012-08-24T12:35:04Z</time>
      </trkpt>
      <trkpt lat="45.51368" lon="3.21887">
        <ele>556.6163</ele>
        <time>2012-08-24T12:35:08Z</time>
      </trkpt>
      <trkpt lat="45.51388" lon="3.21899">
        <ele>557.773</ele>
        <time>2012-08-24T12:35:12Z</time>
      </trkpt>
      <trkpt lat="45.51407" lon="3.2191">
        <ele>559.0445</ele>
        <time>2012-08-24T12:35:16Z</time>
      </trkpt>
      <trkpt lat="45.51434" lon="3.21932">
        <ele>561.734</ele>
        <time>2012-08-24T12:35:22Z</time>
      </trkpt>
      <trkpt lat="45.51455" lon="3.21943">
        <ele>562.1365</ele>
        <time>2012-08-24T12:35:26Z</time>
      </trkpt>
      <trkpt lat="45.51475" lon="3.21949">
        <ele>560.5284</ele>
        <time>2012-08-24T12:35:29Z</time>
      </trkpt>
      <trkpt lat="45.51495" lon="3.21942">
        <ele>556.8672</ele>
        <time>2012-08-24T12:35:32Z</time>
      </trkpt>
      <trkpt lat="45.51515" lon="3.21935">
        <ele>552.8445</ele>
        <time>2012-08-24T12:35:35Z</time>
      </trkpt>
      <trkpt lat="45.51535" lon="3.21939">
        <ele>551.80835</ele>
        <time>2012-08-24T12:35:38Z</time>
      </trkpt>
      <trkpt lat="45.51556" lon="3.21948">
        <ele>551.83527</ele>
        <time>2012-08-24T12:35:41Z</time>
      </trkpt>
      <trkpt lat="45.51579" lon="3.21955">
        <ele>552.2685</ele>
        <time>2012-08-24T12:35:44Z</time>
      </trkpt>
      <trkpt lat="45.51605" lon="3.21959">
        <ele>552.54816</ele>
        <time>2012-08-24T12:35:47Z</time>
      </trkpt>
      <trkpt lat="45.51622" lon="3.21966">
        <ele>552.7748</ele>
        <time>2012-08-24T12:35:49Z</time>
      </trkpt>
      <trkpt lat="45.51638" lon="3.21979">
        <ele>552.98975</ele>
        <time>2012-08-24T12:35:51Z</time>
      </trkpt>
      <trkpt lat="45.51655" lon="3.21995">
        <ele>553.22314</ele>
        <time>2012-08-24T12:35:53Z</time>
      </trkpt>
      <trkpt lat="45.51669" lon="3.22018">
        <ele>553.4357</ele>
        <time>2012-08-24T12:35:55Z</time>
      </trkpt>
      <trkpt lat="45.51691" lon="3.22039">
        <ele>553.6765</ele>
        <time>2012-08-24T12:35:58Z</time>
      </trkpt>
      <trkpt lat="45.51749" lon="3.22063">
        <ele>549.809</ele>
        <time>2012-08-24T12:36:05Z</time>
      </trkpt>
      <trkpt lat="45.51771" lon="3.2207">
        <ele>546.2731</ele>
        <time>2012-08-24T12:36:08Z</time>
      </trkpt>
      <trkpt lat="45.51794" lon="3.22069">
        <ele>543.0298</ele>
        <time>2012-08-24T12:36:11Z</time>
      </trkpt>
      <trkpt lat="45.51818" lon="3.22067">
        <ele>540.924</ele>
        <time>2012-08-24T12:36:14Z</time>
      </trkpt>
      <trkpt lat="45.51842" lon="3.22064">
        <ele>538.8372</ele>
        <time>2012-08-24T12:36:17Z</time>
      </trkpt>
      <trkpt lat="45.51864" lon="3.22064">
        <ele>536.849</ele>
        <time>2012-08-24T12:36:20Z</time>
      </trkpt>
      <trkpt lat="45.51885" lon="3.22063">
        <ele>535.33527</ele>
        <time>2012-08-24T12:36:23Z</time>
      </trkpt>
      <trkpt lat="45.51908" lon="3.22064">
        <ele>533.7029</ele>
        <time>2012-08-24T12:36:26Z</time>
      </trkpt>
      <trkpt lat="45.51931" lon="3.22068">
        <ele>531.66266</ele>
        <time>2012-08-24T12:36:29Z</time>
      </trkpt>
      <trkpt lat="45.51952" lon="3.22075">
        <ele>528.31915</ele>
        <time>2012-08-24T12:36:32Z</time>
      </trkpt>
      <trkpt lat="45.51973" lon="3.22083">
        <ele>524.4445</ele>
        <time>2012-08-24T12:36:35Z</time>
      </trkpt>
      <trkpt lat="45.51996" lon="3.2209">
        <ele>521.574</ele>
        <time>2012-08-24T12:36:38Z</time>
      </trkpt>
      <trkpt lat="45.52019" lon="3.22094">
        <ele>519.5989</ele>
        <time>2012-08-24T12:36:41Z</time>
      </trkpt>
      <trkpt lat="45.52041" lon="3.22101">
        <ele>517.5798</ele>
        <time>2012-08-24T12:36:44Z</time>
      </trkpt>
      <trkpt lat="45.52064" lon="3.2211">
        <ele>515.1025</ele>
        <time>2012-08-24T12:36:48Z</time>
      </trkpt>
      <trkpt lat="45.52083" lon="3.22125">
        <ele>512.4806</ele>
        <time>2012-08-24T12:36:53Z</time>
      </trkpt>
      <trkpt lat="45.52099" lon="3.2214">
        <ele>511.23608</ele>
        <time>2012-08-24T12:36:56Z</time>
      </trkpt>
      <trkpt lat="45.5212" lon="3.22157">
        <ele>509.57382</ele>
        <time>2012-08-24T12:37:00Z</time>
      </trkpt>
      <trkpt lat="45.52139" lon="3.22176">
        <ele>506.13263</ele>
        <time>2012-08-24T12:37:04Z</time>
      </trkpt>
      <trkpt lat="45.52158" lon="3.22195">
        <ele>503.6825</ele>
        <time>2012-08-24T12:37:08Z</time>
      </trkpt>
      <trkpt lat="45.52176" lon="3.22215">
        <ele>501.235</ele>
        <time>2012-08-24T12:37:12Z</time>
      </trkpt>
      <trkpt lat="45.5219" lon="3.22235">
        <ele>499.72308</ele>
        <time>2012-08-24T12:37:15Z</time>
      </trkpt>
      <trkpt lat="45.52203" lon="3.2226">
        <ele>497.74152</ele>
        <time>2012-08-24T12:37:18Z</time>
      </trkpt>
      <trkpt lat="45.52215" lon="3.22285">
        <ele>495.84616</ele>
        <time>2012-08-24T12:37:21Z</time>
      </trkpt>
      <trkpt lat="45.52231" lon="3.2231">
        <ele>494.32468</ele>
        <time>2012-08-24T12:37:24Z</time>
      </trkpt>
      <trkpt lat="45.52248" lon="3.22336">
        <ele>491.9828</ele>
        <time>2012-08-24T12:37:27Z</time>
      </trkpt>
      <trkpt lat="45.5227" lon="3.22353">
        <ele>490.84326</ele>
        <time>2012-08-24T12:37:30Z</time>
      </trkpt>
      <trkpt lat="45.52292" lon="3.2237">
        <ele>490.27814</ele>
        <time>2012-08-24T12:37:33Z</time>
      </trkpt>
      <trkpt lat="45.52313" lon="3.22386">
        <ele>490.40222</ele>
        <time>2012-08-24T12:37:36Z</time>
      </trkpt>
      <trkpt lat="45.52329" lon="3.224">
        <ele>490.4802</ele>
        <time>2012-08-24T12:37:38Z</time>
      </trkpt>
      <trkpt lat="45.52345" lon="3.2242">
        <ele>490.58905</ele>
        <time>2012-08-24T12:37:41Z</time>
      </trkpt>
      <trkpt lat="45.52366" lon="3.22434">
        <ele>490.34277</ele>
        <time>2012-08-24T12:37:44Z</time>
      </trkpt>
      <trkpt lat="45.52386" lon="3.22448">
        <ele>489.99982</ele>
        <time>2012-08-24T12:37:47Z</time>
      </trkpt>
      <trkpt lat="45.52411" lon="3.22466">
        <ele>489.54105</ele>
        <time>2012-08-24T12:37:50Z</time>
      </trkpt>
      <trkpt lat="45.52426" lon="3.22482">
        <ele>489.06454</ele>
        <time>2012-08-24T12:37:52Z</time>
      </trkpt>
      <trkpt lat="45.52442" lon="3.22508">
        <ele>488.63712</ele>
        <time>2012-08-24T12:37:55Z</time>
      </trkpt>
      <trkpt lat="45.52453" lon="3.22529">
        <ele>488.2748</ele>
        <time>2012-08-24T12:37:57Z</time>
      </trkpt>
      <trkpt lat="45.52466" lon="3.22554">
        <ele>486.81958</ele>
        <time>2012-08-24T12:38:00Z</time>
      </trkpt>
      <trkpt lat="45.52479" lon="3.22575">
        <ele>485.83688</ele>
        <time>2012-08-24T12:38:03Z</time>
      </trkpt>
      <trkpt lat="45.52493" lon="3.2259">
        <ele>484.5567</ele>
        <time>2012-08-24T12:38:06Z</time>
      </trkpt>
      <trkpt lat="45.52513" lon="3.22597">
        <ele>482.3057</ele>
        <time>2012-08-24T12:38:09Z</time>
      </trkpt>
      <trkpt lat="45.52533" lon="3.22605">
        <ele>479.61423</ele>
        <time>2012-08-24T12:38:13Z</time>
      </trkpt>
      <trkpt lat="45.52545" lon="3.22631">
        <ele>477.6075</ele>
        <time>2012-08-24T12:38:17Z</time>
      </trkpt>
      <trkpt lat="45.52558" lon="3.22654">
        <ele>476.60797</ele>
        <time>2012-08-24T12:38:22Z</time>
      </trkpt>
      <trkpt lat="45.52571" lon="3.22674">
        <ele>476.35184</ele>
        <time>2012-08-24T12:38:27Z</time>
      </trkpt>
      <trkpt lat="45.52587" lon="3.22694">
        <ele>476.3854</ele>
        <time>2012-08-24T12:38:33Z</time>
      </trkpt>
      <trkpt lat="45.52603" lon="3.22713">
        <ele>475.6513</ele>
        <time>2012-08-24T12:38:39Z</time>
      </trkpt>
      <trkpt lat="45.52616" lon="3.22693">
        <ele>472.23215</ele>
        <time>2012-08-24T12:38:51Z</time>
      </trkpt>
      <trkpt lat="45.52616" lon="3.22666">
        <ele>471.23926</ele>
        <time>2012-08-24T12:38:57Z</time>
      </trkpt>
      <trkpt lat="45.52622" lon="3.22638">
        <ele>469.83743</ele>
        <time>2012-08-24T12:39:04Z</time>
      </trkpt>
      <trkpt lat="45.52628" lon="3.22611">
        <ele>470.12283</ele>
        <time>2012-08-24T12:39:11Z</time>
      </trkpt>
      <trkpt lat="45.52634" lon="3.22587">
        <ele>471.4592</ele>
        <time>2012-08-24T12:39:17Z</time>
      </trkpt>
      <trkpt lat="45.52639" lon="3.22561">
        <ele>472.90207</ele>
        <time>2012-08-24T12:39:23Z</time>
      </trkpt>
      <trkpt lat="45.52658" lon="3.22569">
        <ele>476.7772</ele>
        <time>2012-08-24T12:39:33Z</time>
      </trkpt>
      <trkpt lat="45.52674" lon="3.22591">
        <ele>477.3991</ele>
        <time>2012-08-24T12:39:38Z</time>
      </trkpt>
      <trkpt lat="45.5269" lon="3.22608">
        <ele>476.9336</ele>
        <time>2012-08-24T12:39:42Z</time>
      </trkpt>
      <trkpt lat="45.52708" lon="3.22626">
        <ele>476.6281</ele>
        <time>2012-08-24T12:39:46Z</time>
      </trkpt>
      <trkpt lat="45.52725" lon="3.2264">
        <ele>475.90768</ele>
        <time>2012-08-24T12:39:49Z</time>
      </trkpt>
      <trkpt lat="45.52742" lon="3.22653">
        <ele>474.52097</ele>
        <time>2012-08-24T12:39:52Z</time>
      </trkpt>
      <trkpt lat="45.5276" lon="3.22665">
        <ele>473.29373</ele>
        <time>2012-08-24T12:39:55Z</time>
      </trkpt>
      <trkpt lat="45.52778" lon="3.22675">
        <ele>471.97598</ele>
        <time>2012-08-24T12:39:58Z</time>
      </trkpt>
      <trkpt lat="45.52797" lon="3.2269">
        <ele>470.6154</ele>
        <time>2012-08-24T12:40:01Z</time>
      </trkpt>
      <trkpt lat="45.52814" lon="3.22706">
        <ele>469.57263</ele>
        <time>2012-08-24T12:40:04Z</time>
      </trkpt>
      <trkpt lat="45.52831" lon="3.22721">
        <ele>469.1171</ele>
        <time>2012-08-24T12:40:07Z</time>
      </trkpt>
      <trkpt lat="45.52846" lon="3.22737">
        <ele>468.57492</ele>
        <time>2012-08-24T12:40:10Z</time>
      </trkpt>
      <trkpt lat="45.52861" lon="3.22752">
        <ele>467.5368</ele>
        <time>2012-08-24T12:40:13Z</time>
      </trkpt>
      <trkpt lat="45.52876" lon="3.22767">
        <ele>466.75824</ele>
        <time>2012-08-24T12:40:16Z</time>
      </trkpt>
      <trkpt lat="45.52897" lon="3.22785">
        <ele>466.041</ele>
        <time>2012-08-24T12:40:20Z</time>
      </trkpt>
      <trkpt lat="45.52917" lon="3.22802">
        <ele>465.1082</ele>
        <time>2012-08-24T12:40:24Z</time>
      </trkpt>
      <trkpt lat="45.52933" lon="3.22817">
        <ele>464.1399</ele>
        <time>2012-08-24T12:40:27Z</time>
      </trkpt>
      <trkpt lat="45.5295" lon="3.22834">
        <ele>463.12048</ele>
        <time>2012-08-24T12:40:30Z</time>
      </trkpt>
      <trkpt lat="45.52964" lon="3.22854">
        <ele>462.18884</ele>
        <time>2012-08-24T12:40:33Z</time>
      </trkpt>
      <trkpt lat="45.52977" lon="3.22875">
        <ele>461.48175</ele>
        <time>2012-08-24T12:40:36Z</time>
      </trkpt>
      <trkpt lat="45.52988" lon="3.22896">
        <ele>461.0772</ele>
        <time>2012-08-24T12:40:39Z</time>
      </trkpt>
      <trkpt lat="45.52998" lon="3.22921">
        <ele>461.9342</ele>
        <time>2012-08-24T12:40:51Z</time>
      </trkpt>
      <trkpt lat="45.53011" lon="3.22946">
        <ele>462.99857</ele>
        <time>2012-08-24T12:40:58Z</time>
      </trkpt>
      <trkpt lat="45.53018" lon="3.22977">
        <ele>465.11777</ele>
        <time>2012-08-24T12:41:03Z</time>
      </trkpt>
      <trkpt lat="45.53028" lon="3.22998">
        <ele>466.56583</ele>
        <time>2012-08-24T12:41:06Z</time>
      </trkpt>
      <trkpt lat="45.53038" lon="3.23026">
        <ele>467.8915</ele>
        <time>2012-08-24T12:41:11Z</time>
      </trkpt>
      <trkpt lat="45.5305" lon="3.23046">
        <ele>467.72693</ele>
        <time>2012-08-24T12:41:15Z</time>
      </trkpt>
      <trkpt lat="45.53064" lon="3.23063">
        <ele>467.4627</ele>
        <time>2012-08-24T12:41:19Z</time>
      </trkpt>
      <trkpt lat="45.53084" lon="3.23077">
        <ele>466.99664</ele>
        <time>2012-08-24T12:41:24Z</time>
      </trkpt>
      <trkpt lat="45.53102" lon="3.23088">
        <ele>467.02148</ele>
        <time>2012-08-24T12:41:28Z</time>
      </trkpt>
      <trkpt lat="45.53119" lon="3.231">
        <ele>467.14185</ele>
        <time>2012-08-24T12:41:32Z</time>
      </trkpt>
      <trkpt lat="45.53137" lon="3.23113">
        <ele>466.81198</ele>
        <time>2012-08-24T12:41:36Z</time>
      </trkpt>
      <trkpt lat="45.53155" lon="3.23127">
        <ele>466.53494</ele>
        <time>2012-08-24T12:41:40Z</time>
      </trkpt>
      <trkpt lat="45.53171" lon="3.23142">
        <ele>466.78906</ele>
        <time>2012-08-24T12:41:44Z</time>
      </trkpt>
      <trkpt lat="45.53188" lon="3.23155">
        <ele>467.12262</ele>
        <time>2012-08-24T12:41:48Z</time>
      </trkpt>
      <trkpt lat="45.53202" lon="3.23176">
        <ele>466.87738</ele>
        <time>2012-08-24T12:41:52Z</time>
      </trkpt>
      <trkpt lat="45.53217" lon="3.232">
        <ele>465.2228</ele>
        <time>2012-08-24T12:41:56Z</time>
      </trkpt>
      <trkpt lat="45.5323" lon="3.23219">
        <ele>464.68045</ele>
        <time>2012-08-24T12:41:59Z</time>
      </trkpt>
      <trkpt lat="45.53245" lon="3.23243">
        <ele>464.38602</ele>
        <time>2012-08-24T12:42:02Z</time>
      </trkpt>
      <trkpt lat="45.53259" lon="3.23265">
        <ele>463.754</ele>
        <time>2012-08-24T12:42:05Z</time>
      </trkpt>
      <trkpt lat="45.53271" lon="3.23288">
        <ele>462.0858</ele>
        <time>2012-08-24T12:42:08Z</time>
      </trkpt>
      <trkpt lat="45.53282" lon="3.23309">
        <ele>460.9539</ele>
        <time>2012-08-24T12:42:11Z</time>
      </trkpt>
      <trkpt lat="45.53297" lon="3.23334">
        <ele>460.381</ele>
        <time>2012-08-24T12:42:15Z</time>
      </trkpt>
      <trkpt lat="45.53312" lon="3.23357">
        <ele>459.87866</ele>
        <time>2012-08-24T12:42:19Z</time>
      </trkpt>
      <trkpt lat="45.53327" lon="3.23377">
        <ele>459.46268</ele>
        <time>2012-08-24T12:42:23Z</time>
      </trkpt>
      <trkpt lat="45.53344" lon="3.23401">
        <ele>458.2338</ele>
        <time>2012-08-24T12:42:27Z</time>
      </trkpt>
      <trkpt lat="45.53358" lon="3.23419">
        <ele>457.29135</ele>
        <time>2012-08-24T12:42:30Z</time>
      </trkpt>
      <trkpt lat="45.53373" lon="3.23437">
        <ele>456.18906</ele>
        <time>2012-08-24T12:42:33Z</time>
      </trkpt>
      <trkpt lat="45.5339" lon="3.23455">
        <ele>454.26776</ele>
        <time>2012-08-24T12:42:36Z</time>
      </trkpt>
      <trkpt lat="45.53406" lon="3.23473">
        <ele>452.00723</ele>
        <time>2012-08-24T12:42:39Z</time>
      </trkpt>
      <trkpt lat="45.53422" lon="3.23491">
        <ele>450.64264</ele>
        <time>2012-08-24T12:42:42Z</time>
      </trkpt>
      <trkpt lat="45.53438" lon="3.23513">
        <ele>449.2716</ele>
        <time>2012-08-24T12:42:45Z</time>
      </trkpt>
      <trkpt lat="45.53456" lon="3.23535">
        <ele>447.63385</ele>
        <time>2012-08-24T12:42:48Z</time>
      </trkpt>
      <trkpt lat="45.53474" lon="3.23558">
        <ele>446.59604</ele>
        <time>2012-08-24T12:42:51Z</time>
      </trkpt>
      <trkpt lat="45.53492" lon="3.23579">
        <ele>445.12854</ele>
        <time>2012-08-24T12:42:54Z</time>
      </trkpt>
      <trkpt lat="45.53514" lon="3.23592">
        <ele>444.1813</ele>
        <time>2012-08-24T12:42:57Z</time>
      </trkpt>
      <trkpt lat="45.53538" lon="3.23578">
        <ele>442.93796</ele>
        <time>2012-08-24T12:43:00Z</time>
      </trkpt>
      <trkpt lat="45.53551" lon="3.23559">
        <ele>441.43777</ele>
        <time>2012-08-24T12:43:02Z</time>
      </trkpt>
      <trkpt lat="45.53561" lon="3.23535">
        <ele>439.62518</ele>
        <time>2012-08-24T12:43:04Z</time>
      </trkpt>
      <trkpt lat="45.53571" lon="3.23511">
        <ele>437.7306</ele>
        <time>2012-08-24T12:43:06Z</time>
      </trkpt>
      <trkpt lat="45.53588" lon="3.23495">
        <ele>434.45563</ele>
        <time>2012-08-24T12:43:09Z</time>
      </trkpt>
      <trkpt lat="45.53603" lon="3.23513">
        <ele>432.30365</ele>
        <time>2012-08-24T12:43:12Z</time>
      </trkpt>
      <trkpt lat="45.53612" lon="3.23539">
        <ele>431.41226</ele>
        <time>2012-08-24T12:43:14Z</time>
      </trkpt>
      <trkpt lat="45.53625" lon="3.23569">
        <ele>430.97333</ele>
        <time>2012-08-24T12:43:16Z</time>
      </trkpt>
      <trkpt lat="45.53635" lon="3.23602">
        <ele>430.9452</ele>
        <time>2012-08-24T12:43:18Z</time>
      </trkpt>
      <trkpt lat="45.53645" lon="3.23635">
        <ele>431.05435</ele>
        <time>2012-08-24T12:43:20Z</time>
      </trkpt>
      <trkpt lat="45.53653" lon="3.23668">
        <ele>431.28452</ele>
        <time>2012-08-24T12:43:22Z</time>
      </trkpt>
      <trkpt lat="45.53666" lon="3.23702">
        <ele>430.95148</ele>
        <time>2012-08-24T12:43:24Z</time>
      </trkpt>
      <trkpt lat="45.53675" lon="3.23737">
        <ele>429.94537</ele>
        <time>2012-08-24T12:43:26Z</time>
      </trkpt>
      <trkpt lat="45.53687" lon="3.23771">
        <ele>428.4107</ele>
        <time>2012-08-24T12:43:28Z</time>
      </trkpt>
      <trkpt lat="45.537" lon="3.23805">
        <ele>426.90997</ele>
        <time>2012-08-24T12:43:30Z</time>
      </trkpt>
      <trkpt lat="45.5371" lon="3.23837">
        <ele>425.7783</ele>
        <time>2012-08-24T12:43:32Z</time>
      </trkpt>
      <trkpt lat="45.53717" lon="3.23868">
        <ele>424.30423</ele>
        <time>2012-08-24T12:43:34Z</time>
      </trkpt>
      <trkpt lat="45.53726" lon="3.23898">
        <ele>422.88757</ele>
        <time>2012-08-24T12:43:36Z</time>
      </trkpt>
      <trkpt lat="45.53734" lon="3.23926">
        <ele>421.65945</ele>
        <time>2012-08-24T12:43:38Z</time>
      </trkpt>
      <trkpt lat="45.53743" lon="3.23955">
        <ele>420.16238</ele>
        <time>2012-08-24T12:43:40Z</time>
      </trkpt>
      <trkpt lat="45.53754" lon="3.2398">
        <ele>418.84528</ele>
        <time>2012-08-24T12:43:42Z</time>
      </trkpt>
      <trkpt lat="45.53761" lon="3.24005">
        <ele>418.3169</ele>
        <time>2012-08-24T12:43:44Z</time>
      </trkpt>
      <trkpt lat="45.53769" lon="3.24032">
        <ele>417.8197</ele>
        <time>2012-08-24T12:43:46Z</time>
      </trkpt>
      <trkpt lat="45.53778" lon="3.24056">
        <ele>417.6025</ele>
        <time>2012-08-24T12:43:48Z</time>
      </trkpt>
      <trkpt lat="45.53784" lon="3.24082">
        <ele>417.3866</ele>
        <time>2012-08-24T12:43:50Z</time>
      </trkpt>
      <trkpt lat="45.53792" lon="3.24114">
        <ele>416.64954</ele>
        <time>2012-08-24T12:43:53Z</time>
      </trkpt>
      <trkpt lat="45.53801" lon="3.24146">
        <ele>415.06674</ele>
        <time>2012-08-24T12:43:56Z</time>
      </trkpt>
      <trkpt lat="45.5381" lon="3.24179">
        <ele>414.1943</ele>
        <time>2012-08-24T12:43:59Z</time>
      </trkpt>
      <trkpt lat="45.53817" lon="3.24202">
        <ele>413.86948</ele>
        <time>2012-08-24T12:44:01Z</time>
      </trkpt>
      <trkpt lat="45.53826" lon="3.24234">
        <ele>413.46576</ele>
        <time>2012-08-24T12:44:04Z</time>
      </trkpt>
      <trkpt lat="45.53837" lon="3.24266">
        <ele>413.44232</ele>
        <time>2012-08-24T12:44:07Z</time>
      </trkpt>
      <trkpt lat="45.53847" lon="3.24299">
        <ele>413.01212</ele>
        <time>2012-08-24T12:44:10Z</time>
      </trkpt>
      <trkpt lat="45.53856" lon="3.24327">
        <ele>412.59937</ele>
        <time>2012-08-24T12:44:13Z</time>
      </trkpt>
      <trkpt lat="45.53862" lon="3.24354">
        <ele>412.40494</ele>
        <time>2012-08-24T12:44:16Z</time>
      </trkpt>
      <trkpt lat="45.53872" lon="3.24381">
        <ele>413.04324</ele>
        <time>2012-08-24T12:44:19Z</time>
      </trkpt>
      <trkpt lat="45.53889" lon="3.24394">
        <ele>412.56674</ele>
        <time>2012-08-24T12:44:25Z</time>
      </trkpt>
      <trkpt lat="45.53908" lon="3.24385">
        <ele>409.08313</ele>
        <time>2012-08-24T12:44:29Z</time>
      </trkpt>
      <trkpt lat="45.53925" lon="3.24375">
        <ele>408.10434</ele>
        <time>2012-08-24T12:44:32Z</time>
      </trkpt>
      <trkpt lat="45.53943" lon="3.24363">
        <ele>407.73203</ele>
        <time>2012-08-24T12:44:35Z</time>
      </trkpt>
      <trkpt lat="45.53964" lon="3.24351">
        <ele>407.21402</ele>
        <time>2012-08-24T12:44:38Z</time>
      </trkpt>
      <trkpt lat="45.53984" lon="3.24338">
        <ele>406.71582</ele>
        <time>2012-08-24T12:44:41Z</time>
      </trkpt>
      <trkpt lat="45.54007" lon="3.24325">
        <ele>406.5306</ele>
        <time>2012-08-24T12:44:44Z</time>
      </trkpt>
      <trkpt lat="45.54027" lon="3.24311">
        <ele>406.465</ele>
        <time>2012-08-24T12:44:47Z</time>
      </trkpt>
      <trkpt lat="45.54049" lon="3.24299">
        <ele>406.33105</ele>
        <time>2012-08-24T12:44:50Z</time>
      </trkpt>
      <trkpt lat="45.54072" lon="3.24286">
        <ele>405.5652</ele>
        <time>2012-08-24T12:44:53Z</time>
      </trkpt>
      <trkpt lat="45.54092" lon="3.24272">
        <ele>404.24832</ele>
        <time>2012-08-24T12:44:56Z</time>
      </trkpt>
      <trkpt lat="45.54111" lon="3.2426">
        <ele>403.2381</ele>
        <time>2012-08-24T12:44:59Z</time>
      </trkpt>
      <trkpt lat="45.54129" lon="3.24249">
        <ele>403.22128</ele>
        <time>2012-08-24T12:45:02Z</time>
      </trkpt>
      <trkpt lat="45.54146" lon="3.24239">
        <ele>403.56573</ele>
        <time>2012-08-24T12:45:05Z</time>
      </trkpt>
      <trkpt lat="45.54168" lon="3.24226">
        <ele>403.7754</ele>
        <time>2012-08-24T12:45:09Z</time>
      </trkpt>
      <trkpt lat="45.54187" lon="3.24219">
        <ele>403.9245</ele>
        <time>2012-08-24T12:45:12Z</time>
      </trkpt>
      <trkpt lat="45.54205" lon="3.24208">
        <ele>403.92337</ele>
        <time>2012-08-24T12:45:15Z</time>
      </trkpt>
      <trkpt lat="45.54224" lon="3.24196">
        <ele>404.07913</ele>
        <time>2012-08-24T12:45:18Z</time>
      </trkpt>
      <trkpt lat="45.54242" lon="3.24191">
        <ele>405.25732</ele>
        <time>2012-08-24T12:45:21Z</time>
      </trkpt>
      <trkpt lat="45.54261" lon="3.24185">
        <ele>405.8528</ele>
        <time>2012-08-24T12:45:24Z</time>
      </trkpt>
      <trkpt lat="45.54279" lon="3.24177">
        <ele>405.85562</ele>
        <time>2012-08-24T12:45:27Z</time>
      </trkpt>
      <trkpt lat="45.54297" lon="3.2417">
        <ele>405.9974</ele>
        <time>2012-08-24T12:45:30Z</time>
      </trkpt>
      <trkpt lat="45.54318" lon="3.24168">
        <ele>407.8268</ele>
        <time>2012-08-24T12:45:34Z</time>
      </trkpt>
      <trkpt lat="45.54339" lon="3.24165">
        <ele>409.5334</ele>
        <time>2012-08-24T12:45:38Z</time>
      </trkpt>
      <trkpt lat="45.54358" lon="3.24164">
        <ele>410.97726</ele>
        <time>2012-08-24T12:45:42Z</time>
      </trkpt>
      <trkpt lat="45.54377" lon="3.24165">
        <ele>411.9138</ele>
        <time>2012-08-24T12:45:46Z</time>
      </trkpt>
      <trkpt lat="45.54396" lon="3.24164">
        <ele>413.18552</ele>
        <time>2012-08-24T12:45:50Z</time>
      </trkpt>
      <trkpt lat="45.54417" lon="3.24167">
        <ele>413.48947</ele>
        <time>2012-08-24T12:45:54Z</time>
      </trkpt>
      <trkpt lat="45.54438" lon="3.2417">
        <ele>412.97937</ele>
        <time>2012-08-24T12:45:58Z</time>
      </trkpt>
      <trkpt lat="45.54461" lon="3.2417">
        <ele>412.4176</ele>
        <time>2012-08-24T12:46:02Z</time>
      </trkpt>
      <trkpt lat="45.54484" lon="3.24175">
        <ele>412.0082</ele>
        <time>2012-08-24T12:46:06Z</time>
      </trkpt>
      <trkpt lat="45.54502" lon="3.24177">
        <ele>412.2368</ele>
        <time>2012-08-24T12:46:09Z</time>
      </trkpt>
      <trkpt lat="45.54522" lon="3.24191">
        <ele>412.40607</ele>
        <time>2012-08-24T12:46:13Z</time>
      </trkpt>
      <trkpt lat="45.54543" lon="3.24193">
        <ele>413.17325</ele>
        <time>2012-08-24T12:46:18Z</time>
      </trkpt>
      <trkpt lat="45.54562" lon="3.24192">
        <ele>411.74612</ele>
        <time>2012-08-24T12:46:22Z</time>
      </trkpt>
      <trkpt lat="45.54582" lon="3.24206">
        <ele>410.71567</ele>
        <time>2012-08-24T12:46:26Z</time>
      </trkpt>
      <trkpt lat="45.54602" lon="3.24212">
        <ele>409.42126</ele>
        <time>2012-08-24T12:46:30Z</time>
      </trkpt>
      <trkpt lat="45.54621" lon="3.24227">
        <ele>408.9953</ele>
        <time>2012-08-24T12:46:34Z</time>
      </trkpt>
      <trkpt lat="45.54641" lon="3.24225">
        <ele>407.8867</ele>
        <time>2012-08-24T12:46:38Z</time>
      </trkpt>
      <trkpt lat="45.54654" lon="3.24204">
        <ele>405.38123</ele>
        <time>2012-08-24T12:46:42Z</time>
      </trkpt>
      <trkpt lat="45.54666" lon="3.24183">
        <ele>404.48383</ele>
        <time>2012-08-24T12:46:46Z</time>
      </trkpt>
      <trkpt lat="45.54681" lon="3.24161">
        <ele>404.3897</ele>
        <time>2012-08-24T12:46:50Z</time>
      </trkpt>
      <trkpt lat="45.54695" lon="3.2414">
        <ele>404.60913</ele>
        <time>2012-08-24T12:46:54Z</time>
      </trkpt>
      <trkpt lat="45.54712" lon="3.24119">
        <ele>405.08755</ele>
        <time>2012-08-24T12:46:58Z</time>
      </trkpt>
      <trkpt lat="45.54729" lon="3.24099">
        <ele>405.7026</ele>
        <time>2012-08-24T12:47:02Z</time>
      </trkpt>
      <trkpt lat="45.54746" lon="3.24081">
        <ele>406.59253</ele>
        <time>2012-08-24T12:47:06Z</time>
      </trkpt>
      <trkpt lat="45.54759" lon="3.24059">
        <ele>407.36746</ele>
        <time>2012-08-24T12:47:10Z</time>
      </trkpt>
      <trkpt lat="45.54776" lon="3.24042">
        <ele>407.5357</ele>
        <time>2012-08-24T12:47:14Z</time>
      </trkpt>
      <trkpt lat="45.5479" lon="3.24024">
        <ele>408.1354</ele>
        <time>2012-08-24T12:47:18Z</time>
      </trkpt>
      <trkpt lat="45.54807" lon="3.24006">
        <ele>408.61618</ele>
        <time>2012-08-24T12:47:22Z</time>
      </trkpt>
      <trkpt lat="45.54822" lon="3.23991">
        <ele>409.93393</ele>
        <time>2012-08-24T12:47:26Z</time>
      </trkpt>
      <trkpt lat="45.54841" lon="3.23979">
        <ele>411.26434</ele>
        <time>2012-08-24T12:47:31Z</time>
      </trkpt>
      <trkpt lat="45.54859" lon="3.23968">
        <ele>413.16852</ele>
        <time>2012-08-24T12:47:36Z</time>
      </trkpt>
      <trkpt lat="45.54878" lon="3.23958">
        <ele>414.14587</ele>
        <time>2012-08-24T12:47:41Z</time>
      </trkpt>
      <trkpt lat="45.54891" lon="3.2394">
        <ele>414.2939</ele>
        <time>2012-08-24T12:47:46Z</time>
      </trkpt>
      <trkpt lat="45.54908" lon="3.23923">
        <ele>416.09705</ele>
        <time>2012-08-24T12:47:52Z</time>
      </trkpt>
      <trkpt lat="45.54923" lon="3.23907">
        <ele>415.7401</ele>
        <time>2012-08-24T12:47:58Z</time>
      </trkpt>
      <trkpt lat="45.54939" lon="3.23888">
        <ele>416.06482</ele>
        <time>2012-08-24T12:48:04Z</time>
      </trkpt>
      <trkpt lat="45.54956" lon="3.23873">
        <ele>419.1965</ele>
        <time>2012-08-24T12:48:11Z</time>
      </trkpt>
      <trkpt lat="45.54972" lon="3.23856">
        <ele>422.71527</ele>
        <time>2012-08-24T12:48:18Z</time>
      </trkpt>
      <trkpt lat="45.54988" lon="3.2384">
        <ele>424.95306</ele>
        <time>2012-08-24T12:48:25Z</time>
      </trkpt>
      <trkpt lat="45.55004" lon="3.23821">
        <ele>427.10855</ele>
        <time>2012-08-24T12:48:32Z</time>
      </trkpt>
      <trkpt lat="45.55018" lon="3.23805">
        <ele>429.70596</ele>
        <time>2012-08-24T12:48:40Z</time>
      </trkpt>
      <trkpt lat="45.55032" lon="3.23786">
        <ele>430.71155</ele>
        <time>2012-08-24T12:48:46Z</time>
      </trkpt>
      <trkpt lat="45.55045" lon="3.23768">
        <ele>431.25327</ele>
        <time>2012-08-24T12:48:51Z</time>
      </trkpt>
      <trkpt lat="45.55059" lon="3.23746">
        <ele>431.4683</ele>
        <time>2012-08-24T12:48:57Z</time>
      </trkpt>
      <trkpt lat="45.55072" lon="3.23724">
        <ele>431.69574</ele>
        <time>2012-08-24T12:49:03Z</time>
      </trkpt>
      <trkpt lat="45.55083" lon="3.23702">
        <ele>431.2076</ele>
        <time>2012-08-24T12:49:08Z</time>
      </trkpt>
      <trkpt lat="45.55094" lon="3.23681">
        <ele>430.2696</ele>
        <time>2012-08-24T12:49:13Z</time>
      </trkpt>
      <trkpt lat="45.55107" lon="3.23657">
        <ele>430.2909</ele>
        <time>2012-08-24T12:49:19Z</time>
      </trkpt>
      <trkpt lat="45.55116" lon="3.2363">
        <ele>430.2554</ele>
        <time>2012-08-24T12:49:25Z</time>
      </trkpt>
      <trkpt lat="45.55125" lon="3.23604">
        <ele>430.32846</ele>
        <time>2012-08-24T12:49:31Z</time>
      </trkpt>
      <trkpt lat="45.55135" lon="3.23577">
        <ele>430.24634</ele>
        <time>2012-08-24T12:49:36Z</time>
      </trkpt>
      <trkpt lat="45.55144" lon="3.2355">
        <ele>430.7418</ele>
        <time>2012-08-24T12:49:41Z</time>
      </trkpt>
      <trkpt lat="45.55152" lon="3.23523">
        <ele>430.36755</ele>
        <time>2012-08-24T12:49:46Z</time>
      </trkpt>
      <trkpt lat="45.55162" lon="3.23496">
        <ele>430.87778</ele>
        <time>2012-08-24T12:49:51Z</time>
      </trkpt>
      <trkpt lat="45.55172" lon="3.23468">
        <ele>430.98822</ele>
        <time>2012-08-24T12:49:56Z</time>
      </trkpt>
      <trkpt lat="45.55181" lon="3.23441">
        <ele>431.79205</ele>
        <time>2012-08-24T12:50:01Z</time>
      </trkpt>
      <trkpt lat="45.55191" lon="3.23413">
        <ele>432.34277</ele>
        <time>2012-08-24T12:50:06Z</time>
      </trkpt>
      <trkpt lat="45.55201" lon="3.23385">
        <ele>433.05264</ele>
        <time>2012-08-24T12:50:11Z</time>
      </trkpt>
      <trkpt lat="45.55209" lon="3.23361">
        <ele>433.79156</ele>
        <time>2012-08-24T12:50:15Z</time>
      </trkpt>
      <trkpt lat="45.55217" lon="3.23337">
        <ele>434.43823</ele>
        <time>2012-08-24T12:50:19Z</time>
      </trkpt>
      <trkpt lat="45.55224" lon="3.23312">
        <ele>434.9335</ele>
        <time>2012-08-24T12:50:23Z</time>
      </trkpt>
      <trkpt lat="45.55232" lon="3.23288">
        <ele>435.29175</ele>
        <time>2012-08-24T12:50:27Z</time>
      </trkpt>
      <trkpt lat="45.55239" lon="3.23259">
        <ele>435.95276</ele>
        <time>2012-08-24T12:50:32Z</time>
      </trkpt>
      <trkpt lat="45.55245" lon="3.23229">
        <ele>436.66147</ele>
        <time>2012-08-24T12:50:37Z</time>
      </trkpt>
      <trkpt lat="45.55248" lon="3.23203">
        <ele>436.7053</ele>
        <time>2012-08-24T12:50:41Z</time>
      </trkpt>
      <trkpt lat="45.5525" lon="3.23175">
        <ele>437.2254</ele>
        <time>2012-08-24T12:50:45Z</time>
      </trkpt>
      <trkpt lat="45.55252" lon="3.23146">
        <ele>437.4224</ele>
        <time>2012-08-24T12:50:49Z</time>
      </trkpt>
      <trkpt lat="45.55254" lon="3.23119">
        <ele>437.7437</ele>
        <time>2012-08-24T12:50:53Z</time>
      </trkpt>
      <trkpt lat="45.55255" lon="3.2309">
        <ele>438.57623</ele>
        <time>2012-08-24T12:50:57Z</time>
      </trkpt>
      <trkpt lat="45.55259" lon="3.23062">
        <ele>439.6088</ele>
        <time>2012-08-24T12:51:01Z</time>
      </trkpt>
      <trkpt lat="45.55262" lon="3.23035">
        <ele>440.71207</ele>
        <time>2012-08-24T12:51:05Z</time>
      </trkpt>
      <trkpt lat="45.55265" lon="3.23008">
        <ele>441.78613</ele>
        <time>2012-08-24T12:51:09Z</time>
      </trkpt>
      <trkpt lat="45.55269" lon="3.2298">
        <ele>442.84473</ele>
        <time>2012-08-24T12:51:13Z</time>
      </trkpt>
      <trkpt lat="45.55273" lon="3.22954">
        <ele>443.3043</ele>
        <time>2012-08-24T12:51:17Z</time>
      </trkpt>
      <trkpt lat="45.55278" lon="3.22927">
        <ele>443.8118</ele>
        <time>2012-08-24T12:51:21Z</time>
      </trkpt>
      <trkpt lat="45.55282" lon="3.229">
        <ele>444.37943</ele>
        <time>2012-08-24T12:51:25Z</time>
      </trkpt>
      <trkpt lat="45.55286" lon="3.22872">
        <ele>445.05316</ele>
        <time>2012-08-24T12:51:29Z</time>
      </trkpt>
      <trkpt lat="45.55292" lon="3.22846">
        <ele>445.83194</ele>
        <time>2012-08-24T12:51:33Z</time>
      </trkpt>
      <trkpt lat="45.55304" lon="3.22825">
        <ele>446.55612</ele>
        <time>2012-08-24T12:51:37Z</time>
      </trkpt>
      <trkpt lat="45.55318" lon="3.22808">
        <ele>446.80673</ele>
        <time>2012-08-24T12:51:41Z</time>
      </trkpt>
      <trkpt lat="45.55334" lon="3.22794">
        <ele>447.84656</ele>
        <time>2012-08-24T12:51:45Z</time>
      </trkpt>
      <trkpt lat="45.55352" lon="3.22777">
        <ele>449.02164</ele>
        <time>2012-08-24T12:51:50Z</time>
      </trkpt>
      <trkpt lat="45.5537" lon="3.2276">
        <ele>449.9911</ele>
        <time>2012-08-24T12:51:55Z</time>
      </trkpt>
      <trkpt lat="45.55388" lon="3.22744">
        <ele>451.08218</ele>
        <time>2012-08-24T12:52:00Z</time>
      </trkpt>
      <trkpt lat="45.55403" lon="3.22728">
        <ele>452.45587</ele>
        <time>2012-08-24T12:52:05Z</time>
      </trkpt>
      <trkpt lat="45.55418" lon="3.22713">
        <ele>454.597</ele>
        <time>2012-08-24T12:52:10Z</time>
      </trkpt>
      <trkpt lat="45.55435" lon="3.227">
        <ele>455.41913</ele>
        <time>2012-08-24T12:52:15Z</time>
      </trkpt>
      <trkpt lat="45.55451" lon="3.22686">
        <ele>456.60162</ele>
        <time>2012-08-24T12:52:20Z</time>
      </trkpt>
      <trkpt lat="45.55467" lon="3.22672">
        <ele>457.73148</ele>
        <time>2012-08-24T12:52:29Z</time>
      </trkpt>
      <trkpt lat="45.55484" lon="3.22658">
        <ele>458.58258</ele>
        <time>2012-08-24T12:52:37Z</time>
      </trkpt>
      <trkpt lat="45.55497" lon="3.22637">
        <ele>459.75296</ele>
        <time>2012-08-24T12:52:45Z</time>
      </trkpt>
      <trkpt lat="45.55509" lon="3.22616">
        <ele>459.58517</ele>
        <time>2012-08-24T12:52:51Z</time>
      </trkpt>
      <trkpt lat="45.5552" lon="3.22592">
        <ele>457.0592</ele>
        <time>2012-08-24T12:52:56Z</time>
      </trkpt>
      <trkpt lat="45.5553" lon="3.22568">
        <ele>455.08466</ele>
        <time>2012-08-24T12:53:00Z</time>
      </trkpt>
      <trkpt lat="45.55541" lon="3.22544">
        <ele>454.20325</ele>
        <time>2012-08-24T12:53:04Z</time>
      </trkpt>
      <trkpt lat="45.5555" lon="3.2252">
        <ele>454.13727</ele>
        <time>2012-08-24T12:53:08Z</time>
      </trkpt>
      <trkpt lat="45.5556" lon="3.22496">
        <ele>453.5781</ele>
        <time>2012-08-24T12:53:12Z</time>
      </trkpt>
      <trkpt lat="45.55571" lon="3.22472">
        <ele>453.7836</ele>
        <time>2012-08-24T12:53:16Z</time>
      </trkpt>
      <trkpt lat="45.5558" lon="3.22448">
        <ele>454.0455</ele>
        <time>2012-08-24T12:53:20Z</time>
      </trkpt>
      <trkpt lat="45.5559" lon="3.22425">
        <ele>454.92758</ele>
        <time>2012-08-24T12:53:24Z</time>
      </trkpt>
      <trkpt lat="45.55599" lon="3.22403">
        <ele>455.34418</ele>
        <time>2012-08-24T12:53:28Z</time>
      </trkpt>
      <trkpt lat="45.5561" lon="3.22381">
        <ele>455.767</ele>
        <time>2012-08-24T12:53:32Z</time>
      </trkpt>
      <trkpt lat="45.55621" lon="3.22354">
        <ele>456.39825</ele>
        <time>2012-08-24T12:53:37Z</time>
      </trkpt>
      <trkpt lat="45.55628" lon="3.22327">
        <ele>456.34113</ele>
        <time>2012-08-24T12:53:42Z</time>
      </trkpt>
      <trkpt lat="45.55636" lon="3.22299">
        <ele>456.84952</ele>
        <time>2012-08-24T12:53:47Z</time>
      </trkpt>
      <trkpt lat="45.55643" lon="3.22272">
        <ele>456.22046</ele>
        <time>2012-08-24T12:53:52Z</time>
      </trkpt>
      <trkpt lat="45.55651" lon="3.22246">
        <ele>458.2751</ele>
        <time>2012-08-24T12:53:57Z</time>
      </trkpt>
      <trkpt lat="45.55658" lon="3.22219">
        <ele>460.16003</ele>
        <time>2012-08-24T12:54:02Z</time>
      </trkpt>
      <trkpt lat="45.55665" lon="3.22194">
        <ele>463.46915</ele>
        <time>2012-08-24T12:54:07Z</time>
      </trkpt>
      <trkpt lat="45.55675" lon="3.22168">
        <ele>464.77444</ele>
        <time>2012-08-24T12:54:13Z</time>
      </trkpt>
      <trkpt lat="45.55679" lon="3.22139">
        <ele>465.42703</ele>
        <time>2012-08-24T12:54:19Z</time>
      </trkpt>
      <trkpt lat="45.5568" lon="3.22111">
        <ele>465.44592</ele>
        <time>2012-08-24T12:54:25Z</time>
      </trkpt>
      <trkpt lat="45.55681" lon="3.22081">
        <ele>467.18015</ele>
        <time>2012-08-24T12:54:32Z</time>
      </trkpt>
      <trkpt lat="45.55683" lon="3.22055">
        <ele>469.01804</ele>
        <time>2012-08-24T12:54:38Z</time>
      </trkpt>
      <trkpt lat="45.55685" lon="3.22029">
        <ele>470.55234</ele>
        <time>2012-08-24T12:54:44Z</time>
      </trkpt>
      <trkpt lat="45.55687" lon="3.22003">
        <ele>472.0113</ele>
        <time>2012-08-24T12:54:50Z</time>
      </trkpt>
      <trkpt lat="45.5569" lon="3.21975">
        <ele>473.6187</ele>
        <time>2012-08-24T12:54:56Z</time>
      </trkpt>
      <trkpt lat="45.55694" lon="3.21949">
        <ele>475.4623</ele>
        <time>2012-08-24T12:55:02Z</time>
      </trkpt>
      <trkpt lat="45.55701" lon="3.21924">
        <ele>477.12454</ele>
        <time>2012-08-24T12:55:08Z</time>
      </trkpt>
      <trkpt lat="45.55712" lon="3.21901">
        <ele>478.22366</ele>
        <time>2012-08-24T12:55:14Z</time>
      </trkpt>
      <trkpt lat="45.55722" lon="3.21879">
        <ele>479.60672</ele>
        <time>2012-08-24T12:55:20Z</time>
      </trkpt>
      <trkpt lat="45.55734" lon="3.21855">
        <ele>481.20425</ele>
        <time>2012-08-24T12:55:27Z</time>
      </trkpt>
      <trkpt lat="45.55745" lon="3.21834">
        <ele>481.89932</ele>
        <time>2012-08-24T12:55:34Z</time>
      </trkpt>
      <trkpt lat="45.55756" lon="3.21814">
        <ele>482.1175</ele>
        <time>2012-08-24T12:55:40Z</time>
      </trkpt>
      <trkpt lat="45.55767" lon="3.21789">
        <ele>483.6146</ele>
        <time>2012-08-24T12:55:47Z</time>
      </trkpt>
      <trkpt lat="45.55772" lon="3.21764">
        <ele>483.71985</ele>
        <time>2012-08-24T12:55:54Z</time>
      </trkpt>
      <trkpt lat="45.55775" lon="3.21737">
        <ele>485.24237</ele>
        <time>2012-08-24T12:56:01Z</time>
      </trkpt>
      <trkpt lat="45.55778" lon="3.2171">
        <ele>487.51672</ele>
        <time>2012-08-24T12:56:09Z</time>
      </trkpt>
      <trkpt lat="45.55785" lon="3.21685">
        <ele>489.46194</ele>
        <time>2012-08-24T12:56:18Z</time>
      </trkpt>
      <trkpt lat="45.55791" lon="3.21659">
        <ele>492.04483</ele>
        <time>2012-08-24T12:56:27Z</time>
      </trkpt>
      <trkpt lat="45.55795" lon="3.21631">
        <ele>494.13925</ele>
        <time>2012-08-24T12:56:36Z</time>
      </trkpt>
      <trkpt lat="45.55799" lon="3.21605">
        <ele>496.47598</ele>
        <time>2012-08-24T12:56:45Z</time>
      </trkpt>
      <trkpt lat="45.55803" lon="3.21578">
        <ele>498.94632</ele>
        <time>2012-08-24T12:56:54Z</time>
      </trkpt>
      <trkpt lat="45.55806" lon="3.2155">
        <ele>502.2966</ele>
        <time>2012-08-24T12:57:04Z</time>
      </trkpt>
      <trkpt lat="45.55806" lon="3.21523">
        <ele>506.694</ele>
        <time>2012-08-24T12:57:14Z</time>
      </trkpt>
      <trkpt lat="45.55807" lon="3.21495">
        <ele>508.16415</ele>
        <time>2012-08-24T12:57:22Z</time>
      </trkpt>
      <trkpt lat="45.55807" lon="3.21466">
        <ele>509.66873</ele>
        <time>2012-08-24T12:57:33Z</time>
      </trkpt>
      <trkpt lat="45.55811" lon="3.21438">
        <ele>510.36383</ele>
        <time>2012-08-24T12:57:42Z</time>
      </trkpt>
      <trkpt lat="45.55816" lon="3.21412">
        <ele>512.90234</ele>
        <time>2012-08-24T12:57:51Z</time>
      </trkpt>
      <trkpt lat="45.55821" lon="3.21385">
        <ele>515.23804</ele>
        <time>2012-08-24T12:58:02Z</time>
      </trkpt>
      <trkpt lat="45.55823" lon="3.21356">
        <ele>514.7697</ele>
        <time>2012-08-24T12:58:10Z</time>
      </trkpt>
      <trkpt lat="45.55825" lon="3.21328">
        <ele>516.5084</ele>
        <time>2012-08-24T12:58:18Z</time>
      </trkpt>
      <trkpt lat="45.55825" lon="3.213">
        <ele>516.6043</ele>
        <time>2012-08-24T12:58:25Z</time>
      </trkpt>
      <trkpt lat="45.55832" lon="3.21274">
        <ele>517.77277</ele>
        <time>2012-08-24T12:58:32Z</time>
      </trkpt>
      <trkpt lat="45.55836" lon="3.21246">
        <ele>523.8391</ele>
        <time>2012-08-24T12:58:40Z</time>
      </trkpt>
      <trkpt lat="45.55838" lon="3.21219">
        <ele>525.6553</ele>
        <time>2012-08-24T12:58:46Z</time>
      </trkpt>
      <trkpt lat="45.55838" lon="3.21193">
        <ele>528.06055</ele>
        <time>2012-08-24T12:58:53Z</time>
      </trkpt>
      <trkpt lat="45.5584" lon="3.21167">
        <ele>527.89233</ele>
        <time>2012-08-24T12:59:00Z</time>
      </trkpt>
      <trkpt lat="45.55844" lon="3.2114">
        <ele>529.1304</ele>
        <time>2012-08-24T12:59:06Z</time>
      </trkpt>
      <trkpt lat="45.55839" lon="3.21113">
        <ele>531.6874</ele>
        <time>2012-08-24T12:59:14Z</time>
      </trkpt>
      <trkpt lat="45.55839" lon="3.21085">
        <ele>535.8588</ele>
        <time>2012-08-24T12:59:22Z</time>
      </trkpt>
      <trkpt lat="45.55838" lon="3.21059">
        <ele>538.35474</ele>
        <time>2012-08-24T12:59:30Z</time>
      </trkpt>
      <trkpt lat="45.55837" lon="3.21031">
        <ele>539.16315</ele>
        <time>2012-08-24T12:59:37Z</time>
      </trkpt>
      <trkpt lat="45.55835" lon="3.21004">
        <ele>541.0018</ele>
        <time>2012-08-24T12:59:44Z</time>
      </trkpt>
      <trkpt lat="45.55829" lon="3.20976">
        <ele>545.60376</ele>
        <time>2012-08-24T12:59:51Z</time>
      </trkpt>
      <trkpt lat="45.5582" lon="3.20951">
        <ele>545.5861</ele>
        <time>2012-08-24T12:59:59Z</time>
      </trkpt>
      <trkpt lat="45.55811" lon="3.20923">
        <ele>547.78735</ele>
        <time>2012-08-24T13:00:07Z</time>
      </trkpt>
      <trkpt lat="45.55804" lon="3.20897">
        <ele>548.3388</ele>
        <time>2012-08-24T13:00:13Z</time>
      </trkpt>
      <trkpt lat="45.55794" lon="3.20875">
        <ele>547.4067</ele>
        <time>2012-08-24T13:00:19Z</time>
      </trkpt>
      <trkpt lat="45.55786" lon="3.20851">
        <ele>547.2968</ele>
        <time>2012-08-24T13:00:24Z</time>
      </trkpt>
      <trkpt lat="45.55782" lon="3.20822">
        <ele>548.00104</ele>
        <time>2012-08-24T13:00:29Z</time>
      </trkpt>
      <trkpt lat="45.55792" lon="3.20797">
        <ele>547.8114</ele>
        <time>2012-08-24T13:00:34Z</time>
      </trkpt>
      <trkpt lat="45.55807" lon="3.20778">
        <ele>547.3617</ele>
        <time>2012-08-24T13:00:39Z</time>
      </trkpt>
      <trkpt lat="45.55819" lon="3.20757">
        <ele>547.66675</ele>
        <time>2012-08-24T13:00:44Z</time>
      </trkpt>
      <trkpt lat="45.55829" lon="3.20735">
        <ele>548.2427</ele>
        <time>2012-08-24T13:00:50Z</time>
      </trkpt>
      <trkpt lat="45.55836" lon="3.20706">
        <ele>550.7382</ele>
        <time>2012-08-24T13:00:58Z</time>
      </trkpt>
      <trkpt lat="45.55843" lon="3.2068">
        <ele>551.7493</ele>
        <time>2012-08-24T13:01:04Z</time>
      </trkpt>
      <trkpt lat="45.55845" lon="3.20654">
        <ele>550.62024</ele>
        <time>2012-08-24T13:01:09Z</time>
      </trkpt>
      <trkpt lat="45.55846" lon="3.20623">
        <ele>548.973</ele>
        <time>2012-08-24T13:01:15Z</time>
      </trkpt>
      <trkpt lat="45.55846" lon="3.20596">
        <ele>548.0302</ele>
        <time>2012-08-24T13:01:20Z</time>
      </trkpt>
      <trkpt lat="45.55847" lon="3.20564">
        <ele>547.1977</ele>
        <time>2012-08-24T13:01:26Z</time>
      </trkpt>
      <trkpt lat="45.55844" lon="3.20534">
        <ele>546.7661</ele>
        <time>2012-08-24T13:01:32Z</time>
      </trkpt>
      <trkpt lat="45.55839" lon="3.20504">
        <ele>544.9992</ele>
        <time>2012-08-24T13:01:37Z</time>
      </trkpt>
      <trkpt lat="45.55832" lon="3.20474">
        <ele>543.5138</ele>
        <time>2012-08-24T13:01:43Z</time>
      </trkpt>
      <trkpt lat="45.55829" lon="3.20446">
        <ele>543.5913</ele>
        <time>2012-08-24T13:01:48Z</time>
      </trkpt>
      <trkpt lat="45.55824" lon="3.2042">
        <ele>543.1058</ele>
        <time>2012-08-24T13:01:53Z</time>
      </trkpt>
      <trkpt lat="45.55818" lon="3.20394">
        <ele>543.9006</ele>
        <time>2012-08-24T13:01:57Z</time>
      </trkpt>
      <trkpt lat="45.55813" lon="3.20366">
        <ele>542.3091</ele>
        <time>2012-08-24T13:02:01Z</time>
      </trkpt>
      <trkpt lat="45.55809" lon="3.20338">
        <ele>542.1881</ele>
        <time>2012-08-24T13:02:07Z</time>
      </trkpt>
      <trkpt lat="45.55803" lon="3.20313">
        <ele>542.88434</ele>
        <time>2012-08-24T13:02:13Z</time>
      </trkpt>
      <trkpt lat="45.55798" lon="3.20288">
        <ele>543.49615</ele>
        <time>2012-08-24T13:02:19Z</time>
      </trkpt>
      <trkpt lat="45.55797" lon="3.20258">
        <ele>544.04785</ele>
        <time>2012-08-24T13:02:24Z</time>
      </trkpt>
      <trkpt lat="45.55805" lon="3.20235">
        <ele>546.963</ele>
        <time>2012-08-24T13:02:31Z</time>
      </trkpt>
      <trkpt lat="45.5581" lon="3.20208">
        <ele>550.15967</ele>
        <time>2012-08-24T13:02:40Z</time>
      </trkpt>
      <trkpt lat="45.55812" lon="3.2018">
        <ele>546.3165</ele>
        <time>2012-08-24T13:02:47Z</time>
      </trkpt>
      <trkpt lat="45.5581" lon="3.20151">
        <ele>547.8481</ele>
        <time>2012-08-24T13:02:55Z</time>
      </trkpt>
      <trkpt lat="45.55805" lon="3.20123">
        <ele>548.7097</ele>
        <time>2012-08-24T13:03:03Z</time>
      </trkpt>
      <trkpt lat="45.55798" lon="3.20096">
        <ele>550.304</ele>
        <time>2012-08-24T13:03:12Z</time>
      </trkpt>
      <trkpt lat="45.5579" lon="3.20072">
        <ele>551.048</ele>
        <time>2012-08-24T13:03:19Z</time>
      </trkpt>
      <trkpt lat="45.55788" lon="3.20043">
        <ele>551.63525</ele>
        <time>2012-08-24T13:03:26Z</time>
      </trkpt>
      <trkpt lat="45.55786" lon="3.20015">
        <ele>555.4717</ele>
        <time>2012-08-24T13:03:33Z</time>
      </trkpt>
      <trkpt lat="45.55782" lon="3.19988">
        <ele>558.49994</ele>
        <time>2012-08-24T13:03:39Z</time>
      </trkpt>
      <trkpt lat="45.55783" lon="3.19959">
        <ele>562.11615</ele>
        <time>2012-08-24T13:03:46Z</time>
      </trkpt>
      <trkpt lat="45.55785" lon="3.19933">
        <ele>564.1524</ele>
        <time>2012-08-24T13:03:52Z</time>
      </trkpt>
      <trkpt lat="45.55785" lon="3.19907">
        <ele>564.6334</ele>
        <time>2012-08-24T13:03:58Z</time>
      </trkpt>
      <trkpt lat="45.55786" lon="3.1988">
        <ele>564.61615</ele>
        <time>2012-08-24T13:04:04Z</time>
      </trkpt>
      <trkpt lat="45.55783" lon="3.19853">
        <ele>564.65686</ele>
        <time>2012-08-24T13:04:10Z</time>
      </trkpt>
      <trkpt lat="45.55781" lon="3.19825">
        <ele>566.661</ele>
        <time>2012-08-24T13:04:17Z</time>
      </trkpt>
      <trkpt lat="45.55777" lon="3.19797">
        <ele>568.663</ele>
        <time>2012-08-24T13:04:23Z</time>
      </trkpt>
      <trkpt lat="45.55775" lon="3.19769">
        <ele>571.375</ele>
        <time>2012-08-24T13:04:29Z</time>
      </trkpt>
      <trkpt lat="45.55768" lon="3.19741">
        <ele>574.04517</ele>
        <time>2012-08-24T13:04:35Z</time>
      </trkpt>
      <trkpt lat="45.55759" lon="3.19711">
        <ele>575.14056</ele>
        <time>2012-08-24T13:04:41Z</time>
      </trkpt>
      <trkpt lat="45.55752" lon="3.19687">
        <ele>576.6854</ele>
        <time>2012-08-24T13:04:46Z</time>
      </trkpt>
      <trkpt lat="45.55742" lon="3.19662">
        <ele>578.90826</ele>
        <time>2012-08-24T13:04:51Z</time>
      </trkpt>
      <trkpt lat="45.55733" lon="3.19637">
        <ele>581.64954</ele>
        <time>2012-08-24T13:04:56Z</time>
      </trkpt>
      <trkpt lat="45.55722" lon="3.19613">
        <ele>584.19</ele>
        <time>2012-08-24T13:05:01Z</time>
      </trkpt>
      <trkpt lat="45.55715" lon="3.19587">
        <ele>586.7787</ele>
        <time>2012-08-24T13:05:06Z</time>
      </trkpt>
      <trkpt lat="45.55709" lon="3.1956">
        <ele>586.3715</ele>
        <time>2012-08-24T13:05:11Z</time>
      </trkpt>
      <trkpt lat="45.55705" lon="3.19531">
        <ele>586.86584</ele>
        <time>2012-08-24T13:05:16Z</time>
      </trkpt>
      <trkpt lat="45.55702" lon="3.19504">
        <ele>587.2913</ele>
        <time>2012-08-24T13:05:21Z</time>
      </trkpt>
      <trkpt lat="45.55699" lon="3.19475">
        <ele>588.22675</ele>
        <time>2012-08-24T13:05:26Z</time>
      </trkpt>
      <trkpt lat="45.55696" lon="3.19447">
        <ele>589.62726</ele>
        <time>2012-08-24T13:05:31Z</time>
      </trkpt>
      <trkpt lat="45.55693" lon="3.19418">
        <ele>590.61285</ele>
        <time>2012-08-24T13:05:36Z</time>
      </trkpt>
      <trkpt lat="45.55689" lon="3.19387">
        <ele>591.21606</ele>
        <time>2012-08-24T13:05:41Z</time>
      </trkpt>
      <trkpt lat="45.55685" lon="3.19356">
        <ele>592.24927</ele>
        <time>2012-08-24T13:05:46Z</time>
      </trkpt>
      <trkpt lat="45.55684" lon="3.19324">
        <ele>592.8622</ele>
        <time>2012-08-24T13:05:51Z</time>
      </trkpt>
      <trkpt lat="45.55685" lon="3.19293">
        <ele>593.0602</ele>
        <time>2012-08-24T13:05:56Z</time>
      </trkpt>
      <trkpt lat="45.55686" lon="3.19265">
        <ele>592.9912</ele>
        <time>2012-08-24T13:06:00Z</time>
      </trkpt>
      <trkpt lat="45.55687" lon="3.19238">
        <ele>592.4382</ele>
        <time>2012-08-24T13:06:04Z</time>
      </trkpt>
      <trkpt lat="45.55687" lon="3.19208">
        <ele>592.18774</ele>
        <time>2012-08-24T13:06:08Z</time>
      </trkpt>
      <trkpt lat="45.55686" lon="3.19179">
        <ele>591.8984</ele>
        <time>2012-08-24T13:06:12Z</time>
      </trkpt>
      <trkpt lat="45.55686" lon="3.1915">
        <ele>592.4607</ele>
        <time>2012-08-24T13:06:16Z</time>
      </trkpt>
      <trkpt lat="45.55683" lon="3.1912">
        <ele>592.9273</ele>
        <time>2012-08-24T13:06:20Z</time>
      </trkpt>
      <trkpt lat="45.55679" lon="3.19092">
        <ele>593.9316</ele>
        <time>2012-08-24T13:06:24Z</time>
      </trkpt>
      <trkpt lat="45.55675" lon="3.19066">
        <ele>595.2076</ele>
        <time>2012-08-24T13:06:28Z</time>
      </trkpt>
      <trkpt lat="45.55676" lon="3.19039">
        <ele>595.6562</ele>
        <time>2012-08-24T13:06:32Z</time>
      </trkpt>
      <trkpt lat="45.55679" lon="3.1901">
        <ele>596.0708</ele>
        <time>2012-08-24T13:06:36Z</time>
      </trkpt>
      <trkpt lat="45.55683" lon="3.1898">
        <ele>596.5317</ele>
        <time>2012-08-24T13:06:40Z</time>
      </trkpt>
      <trkpt lat="45.55687" lon="3.18952">
        <ele>597.30756</ele>
        <time>2012-08-24T13:06:44Z</time>
      </trkpt>
      <trkpt lat="45.55688" lon="3.18922">
        <ele>597.7968</ele>
        <time>2012-08-24T13:06:48Z</time>
      </trkpt>
      <trkpt lat="45.5569" lon="3.18892">
        <ele>597.8677</ele>
        <time>2012-08-24T13:06:52Z</time>
      </trkpt>
      <trkpt lat="45.55694" lon="3.18863">
        <ele>598.12054</ele>
        <time>2012-08-24T13:06:56Z</time>
      </trkpt>
      <trkpt lat="45.55698" lon="3.18838">
        <ele>598.51227</ele>
        <time>2012-08-24T13:07:00Z</time>
      </trkpt>
      <trkpt lat="45.55704" lon="3.1881">
        <ele>597.994</ele>
        <time>2012-08-24T13:07:04Z</time>
      </trkpt>
      <trkpt lat="45.55709" lon="3.18785">
        <ele>597.6894</ele>
        <time>2012-08-24T13:07:08Z</time>
      </trkpt>
      <trkpt lat="45.55714" lon="3.18759">
        <ele>597.529</ele>
        <time>2012-08-24T13:07:12Z</time>
      </trkpt>
      <trkpt lat="45.55723" lon="3.18735">
        <ele>597.86414</ele>
        <time>2012-08-24T13:07:16Z</time>
      </trkpt>
      <trkpt lat="45.55731" lon="3.18712">
        <ele>598.1542</ele>
        <time>2012-08-24T13:07:20Z</time>
      </trkpt>
      <trkpt lat="45.5574" lon="3.18688">
        <ele>598.82367</ele>
        <time>2012-08-24T13:07:24Z</time>
      </trkpt>
      <trkpt lat="45.55749" lon="3.18664">
        <ele>599.2406</ele>
        <time>2012-08-24T13:07:28Z</time>
      </trkpt>
      <trkpt lat="45.55759" lon="3.18639">
        <ele>599.96704</ele>
        <time>2012-08-24T13:07:32Z</time>
      </trkpt>
      <trkpt lat="45.55771" lon="3.18617">
        <ele>599.51056</ele>
        <time>2012-08-24T13:07:36Z</time>
      </trkpt>
      <trkpt lat="45.55784" lon="3.18592">
        <ele>598.85284</ele>
        <time>2012-08-24T13:07:40Z</time>
      </trkpt>
      <trkpt lat="45.55799" lon="3.1857">
        <ele>599.001</ele>
        <time>2012-08-24T13:07:44Z</time>
      </trkpt>
      <trkpt lat="45.55814" lon="3.18547">
        <ele>598.99396</ele>
        <time>2012-08-24T13:07:48Z</time>
      </trkpt>
      <trkpt lat="45.5583" lon="3.18522">
        <ele>598.6472</ele>
        <time>2012-08-24T13:07:52Z</time>
      </trkpt>
      <trkpt lat="45.55842" lon="3.18502">
        <ele>598.7439</ele>
        <time>2012-08-24T13:07:55Z</time>
      </trkpt>
      <trkpt lat="45.55854" lon="3.18482">
        <ele>598.7456</ele>
        <time>2012-08-24T13:07:58Z</time>
      </trkpt>
      <trkpt lat="45.55866" lon="3.18463">
        <ele>599.0213</ele>
        <time>2012-08-24T13:08:01Z</time>
      </trkpt>
      <trkpt lat="45.55879" lon="3.18443">
        <ele>599.6783</ele>
        <time>2012-08-24T13:08:04Z</time>
      </trkpt>
      <trkpt lat="45.5589" lon="3.18422">
        <ele>600.3023</ele>
        <time>2012-08-24T13:08:07Z</time>
      </trkpt>
      <trkpt lat="45.55902" lon="3.18395">
        <ele>600.99713</ele>
        <time>2012-08-24T13:08:11Z</time>
      </trkpt>
      <trkpt lat="45.55916" lon="3.18367">
        <ele>602.6158</ele>
        <time>2012-08-24T13:08:15Z</time>
      </trkpt>
      <trkpt lat="45.55929" lon="3.18338">
        <ele>603.7916</ele>
        <time>2012-08-24T13:08:19Z</time>
      </trkpt>
      <trkpt lat="45.55941" lon="3.18312">
        <ele>604.33124</ele>
        <time>2012-08-24T13:08:23Z</time>
      </trkpt>
      <trkpt lat="45.55953" lon="3.18283">
        <ele>605.46796</ele>
        <time>2012-08-24T13:08:27Z</time>
      </trkpt>
      <trkpt lat="45.55966" lon="3.18258">
        <ele>606.18115</ele>
        <time>2012-08-24T13:08:31Z</time>
      </trkpt>
      <trkpt lat="45.55982" lon="3.1824">
        <ele>606.97034</ele>
        <time>2012-08-24T13:08:36Z</time>
      </trkpt>
      <trkpt lat="45.55994" lon="3.18213">
        <ele>607.2755</ele>
        <time>2012-08-24T13:08:41Z</time>
      </trkpt>
      <trkpt lat="45.56004" lon="3.18189">
        <ele>607.75543</ele>
        <time>2012-08-24T13:08:45Z</time>
      </trkpt>
      <trkpt lat="45.56015" lon="3.18165">
        <ele>608.4475</ele>
        <time>2012-08-24T13:08:49Z</time>
      </trkpt>
      <trkpt lat="45.56025" lon="3.1814">
        <ele>608.17236</ele>
        <time>2012-08-24T13:08:53Z</time>
      </trkpt>
      <trkpt lat="45.56034" lon="3.18113">
        <ele>608.3431</ele>
        <time>2012-08-24T13:08:57Z</time>
      </trkpt>
      <trkpt lat="45.56043" lon="3.18085">
        <ele>608.74243</ele>
        <time>2012-08-24T13:09:01Z</time>
      </trkpt>
      <trkpt lat="45.56053" lon="3.18058">
        <ele>608.9032</ele>
        <time>2012-08-24T13:09:05Z</time>
      </trkpt>
      <trkpt lat="45.56064" lon="3.18032">
        <ele>609.0802</ele>
        <time>2012-08-24T13:09:09Z</time>
      </trkpt>
      <trkpt lat="45.56074" lon="3.18005">
        <ele>610.0007</ele>
        <time>2012-08-24T13:09:13Z</time>
      </trkpt>
      <trkpt lat="45.56085" lon="3.17979">
        <ele>610.2892</ele>
        <time>2012-08-24T13:09:17Z</time>
      </trkpt>
      <trkpt lat="45.56098" lon="3.17949">
        <ele>609.76056</ele>
        <time>2012-08-24T13:09:21Z</time>
      </trkpt>
      <trkpt lat="45.56107" lon="3.17924">
        <ele>609.66205</ele>
        <time>2012-08-24T13:09:25Z</time>
      </trkpt>
      <trkpt lat="45.56119" lon="3.17899">
        <ele>610.2879</ele>
        <time>2012-08-24T13:09:29Z</time>
      </trkpt>
      <trkpt lat="45.56134" lon="3.17876">
        <ele>610.325</ele>
        <time>2012-08-24T13:09:33Z</time>
      </trkpt>
      <trkpt lat="45.56146" lon="3.17851">
        <ele>610.7637</ele>
        <time>2012-08-24T13:09:37Z</time>
      </trkpt>
      <trkpt lat="45.56158" lon="3.17824">
        <ele>610.77826</ele>
        <time>2012-08-24T13:09:41Z</time>
      </trkpt>
      <trkpt lat="45.56166" lon="3.17799">
        <ele>610.3559</ele>
        <time>2012-08-24T13:09:45Z</time>
      </trkpt>
      <trkpt lat="45.56173" lon="3.17771">
        <ele>608.6899</ele>
        <time>2012-08-24T13:09:49Z</time>
      </trkpt>
      <trkpt lat="45.56181" lon="3.17742">
        <ele>608.72833</ele>
        <time>2012-08-24T13:09:53Z</time>
      </trkpt>
      <trkpt lat="45.56187" lon="3.17715">
        <ele>606.57654</ele>
        <time>2012-08-24T13:09:56Z</time>
      </trkpt>
      <trkpt lat="45.56191" lon="3.17679">
        <ele>603.70935</ele>
        <time>2012-08-24T13:09:59Z</time>
      </trkpt>
      <trkpt lat="45.56194" lon="3.17643">
        <ele>599.57635</ele>
        <time>2012-08-24T13:10:02Z</time>
      </trkpt>
      <trkpt lat="45.56195" lon="3.17616">
        <ele>597.27814</ele>
        <time>2012-08-24T13:10:04Z</time>
      </trkpt>
      <trkpt lat="45.56201" lon="3.1759">
        <ele>595.73535</ele>
        <time>2012-08-24T13:10:06Z</time>
      </trkpt>
      <trkpt lat="45.56205" lon="3.17554">
        <ele>593.1738</ele>
        <time>2012-08-24T13:10:08Z</time>
      </trkpt>
      <trkpt lat="45.56211" lon="3.17519">
        <ele>591.0767</ele>
        <time>2012-08-24T13:10:10Z</time>
      </trkpt>
      <trkpt lat="45.56218" lon="3.17487">
        <ele>589.57837</ele>
        <time>2012-08-24T13:10:12Z</time>
      </trkpt>
      <trkpt lat="45.5622" lon="3.17459">
        <ele>587.598</ele>
        <time>2012-08-24T13:10:14Z</time>
      </trkpt>
      <trkpt lat="45.56221" lon="3.17429">
        <ele>585.71533</ele>
        <time>2012-08-24T13:10:16Z</time>
      </trkpt>
      <trkpt lat="45.56224" lon="3.17399">
        <ele>584.4313</ele>
        <time>2012-08-24T13:10:18Z</time>
      </trkpt>
      <trkpt lat="45.5623" lon="3.1737">
        <ele>583.7403</ele>
        <time>2012-08-24T13:10:20Z</time>
      </trkpt>
      <trkpt lat="45.56242" lon="3.17343">
        <ele>583.36414</ele>
        <time>2012-08-24T13:10:22Z</time>
      </trkpt>
      <trkpt lat="45.56259" lon="3.17327">
        <ele>583.1337</ele>
        <time>2012-08-24T13:10:24Z</time>
      </trkpt>
      <trkpt lat="45.56273" lon="3.17309">
        <ele>582.8104</ele>
        <time>2012-08-24T13:10:26Z</time>
      </trkpt>
      <trkpt lat="45.56288" lon="3.17293">
        <ele>582.81604</ele>
        <time>2012-08-24T13:10:28Z</time>
      </trkpt>
      <trkpt lat="45.56309" lon="3.17273">
        <ele>582.5245</ele>
        <time>2012-08-24T13:10:31Z</time>
      </trkpt>
      <trkpt lat="45.56328" lon="3.17251">
        <ele>580.75305</ele>
        <time>2012-08-24T13:10:34Z</time>
      </trkpt>
      <trkpt lat="45.56346" lon="3.17231">
        <ele>579.1557</ele>
        <time>2012-08-24T13:10:37Z</time>
      </trkpt>
      <trkpt lat="45.56361" lon="3.17207">
        <ele>578.3084</ele>
        <time>2012-08-24T13:10:40Z</time>
      </trkpt>
      <trkpt lat="45.56381" lon="3.17186">
        <ele>577.4322</ele>
        <time>2012-08-24T13:10:43Z</time>
      </trkpt>
      <trkpt lat="45.564" lon="3.17164">
        <ele>576.8797</ele>
        <time>2012-08-24T13:10:46Z</time>
      </trkpt>
      <trkpt lat="45.56414" lon="3.17149">
        <ele>576.3238</ele>
        <time>2012-08-24T13:10:48Z</time>
      </trkpt>
      <trkpt lat="45.56429" lon="3.17133">
        <ele>575.58606</ele>
        <time>2012-08-24T13:10:50Z</time>
      </trkpt>
      <trkpt lat="45.56444" lon="3.17117">
        <ele>574.8211</ele>
        <time>2012-08-24T13:10:52Z</time>
      </trkpt>
      <trkpt lat="45.56458" lon="3.171">
        <ele>573.40955</ele>
        <time>2012-08-24T13:10:54Z</time>
      </trkpt>
      <trkpt lat="45.56472" lon="3.17082">
        <ele>572.0218</ele>
        <time>2012-08-24T13:10:56Z</time>
      </trkpt>
      <trkpt lat="45.56486" lon="3.17064">
        <ele>570.3475</ele>
        <time>2012-08-24T13:10:58Z</time>
      </trkpt>
      <trkpt lat="45.565" lon="3.17045">
        <ele>568.66815</ele>
        <time>2012-08-24T13:11:00Z</time>
      </trkpt>
      <trkpt lat="45.56515" lon="3.17026">
        <ele>567.04224</ele>
        <time>2012-08-24T13:11:02Z</time>
      </trkpt>
      <trkpt lat="45.5653" lon="3.17008">
        <ele>565.53394</ele>
        <time>2012-08-24T13:11:04Z</time>
      </trkpt>
      <trkpt lat="45.56545" lon="3.1699">
        <ele>563.9918</ele>
        <time>2012-08-24T13:11:06Z</time>
      </trkpt>
      <trkpt lat="45.5656" lon="3.16972">
        <ele>562.43054</ele>
        <time>2012-08-24T13:11:08Z</time>
      </trkpt>
      <trkpt lat="45.56576" lon="3.16951">
        <ele>559.20404</ele>
        <time>2012-08-24T13:11:11Z</time>
      </trkpt>
      <trkpt lat="45.5659" lon="3.16934">
        <ele>556.7147</ele>
        <time>2012-08-24T13:11:14Z</time>
      </trkpt>
      <trkpt lat="45.56595" lon="3.16906">
        <ele>553.9333</ele>
        <time>2012-08-24T13:11:17Z</time>
      </trkpt>
      <trkpt lat="45.56601" lon="3.16875">
        <ele>551.6974</ele>
        <time>2012-08-24T13:11:20Z</time>
      </trkpt>
      <trkpt lat="45.56608" lon="3.1684">
        <ele>548.80566</ele>
        <time>2012-08-24T13:11:23Z</time>
      </trkpt>
      <trkpt lat="45.56614" lon="3.16808">
        <ele>545.4857</ele>
        <time>2012-08-24T13:11:26Z</time>
      </trkpt>
      <trkpt lat="45.56617" lon="3.16779">
        <ele>540.63043</ele>
        <time>2012-08-24T13:11:29Z</time>
      </trkpt>
      <trkpt lat="45.5662" lon="3.16747">
        <ele>534.72675</ele>
        <time>2012-08-24T13:11:33Z</time>
      </trkpt>
      <trkpt lat="45.56624" lon="3.1672">
        <ele>531.3477</ele>
        <time>2012-08-24T13:11:36Z</time>
      </trkpt>
      <trkpt lat="45.56627" lon="3.16687">
        <ele>529.03314</ele>
        <time>2012-08-24T13:11:39Z</time>
      </trkpt>
      <trkpt lat="45.56628" lon="3.16652">
        <ele>527.90515</ele>
        <time>2012-08-24T13:11:42Z</time>
      </trkpt>
      <trkpt lat="45.5663" lon="3.16613">
        <ele>527.2714</ele>
        <time>2012-08-24T13:11:45Z</time>
      </trkpt>
      <trkpt lat="45.56633" lon="3.16576">
        <ele>525.2822</ele>
        <time>2012-08-24T13:11:48Z</time>
      </trkpt>
      <trkpt lat="45.56642" lon="3.16542">
        <ele>524.3883</ele>
        <time>2012-08-24T13:11:51Z</time>
      </trkpt>
      <trkpt lat="45.56654" lon="3.16511">
        <ele>524.4768</ele>
        <time>2012-08-24T13:11:54Z</time>
      </trkpt>
      <trkpt lat="45.56667" lon="3.16482">
        <ele>524.6704</ele>
        <time>2012-08-24T13:11:57Z</time>
      </trkpt>
      <trkpt lat="45.5668" lon="3.16454">
        <ele>524.8474</ele>
        <time>2012-08-24T13:12:00Z</time>
      </trkpt>
      <trkpt lat="45.56694" lon="3.16425">
        <ele>525.0815</ele>
        <time>2012-08-24T13:12:03Z</time>
      </trkpt>
      <trkpt lat="45.5671" lon="3.16394">
        <ele>524.538</ele>
        <time>2012-08-24T13:12:06Z</time>
      </trkpt>
      <trkpt lat="45.56726" lon="3.16365">
        <ele>522.4212</ele>
        <time>2012-08-24T13:12:09Z</time>
      </trkpt>
      <trkpt lat="45.56743" lon="3.16338">
        <ele>520.87823</ele>
        <time>2012-08-24T13:12:12Z</time>
      </trkpt>
      <trkpt lat="45.56754" lon="3.16317">
        <ele>519.18506</ele>
        <time>2012-08-24T13:12:15Z</time>
      </trkpt>
      <trkpt lat="45.56749" lon="3.1629">
        <ele>517.8628</ele>
        <time>2012-08-24T13:12:20Z</time>
      </trkpt>
      <trkpt lat="45.56731" lon="3.16275">
        <ele>517.02545</ele>
        <time>2012-08-24T13:12:23Z</time>
      </trkpt>
      <trkpt lat="45.56709" lon="3.16263">
        <ele>516.3753</ele>
        <time>2012-08-24T13:12:26Z</time>
      </trkpt>
      <trkpt lat="45.56691" lon="3.16254">
        <ele>516.2213</ele>
        <time>2012-08-24T13:12:28Z</time>
      </trkpt>
      <trkpt lat="45.56674" lon="3.16246">
        <ele>516.2909</ele>
        <time>2012-08-24T13:12:30Z</time>
      </trkpt>
      <trkpt lat="45.56658" lon="3.16229">
        <ele>515.50507</ele>
        <time>2012-08-24T13:12:32Z</time>
      </trkpt>
      <trkpt lat="45.56641" lon="3.1621">
        <ele>514.5256</ele>
        <time>2012-08-24T13:12:34Z</time>
      </trkpt>
      <trkpt lat="45.56625" lon="3.1619">
        <ele>513.61206</ele>
        <time>2012-08-24T13:12:36Z</time>
      </trkpt>
      <trkpt lat="45.56609" lon="3.1617">
        <ele>512.7232</ele>
        <time>2012-08-24T13:12:38Z</time>
      </trkpt>
      <trkpt lat="45.56594" lon="3.1615">
        <ele>512.0295</ele>
        <time>2012-08-24T13:12:40Z</time>
      </trkpt>
      <trkpt lat="45.5658" lon="3.16132">
        <ele>511.60803</ele>
        <time>2012-08-24T13:12:42Z</time>
      </trkpt>
      <trkpt lat="45.56565" lon="3.16115">
        <ele>511.10846</ele>
        <time>2012-08-24T13:12:44Z</time>
      </trkpt>
      <trkpt lat="45.5655" lon="3.161">
        <ele>510.77118</ele>
        <time>2012-08-24T13:12:46Z</time>
      </trkpt>
      <trkpt lat="45.56529" lon="3.16087">
        <ele>510.38055</ele>
        <time>2012-08-24T13:12:49Z</time>
      </trkpt>
      <trkpt lat="45.56506" lon="3.16078">
        <ele>511.43607</ele>
        <time>2012-08-24T13:12:52Z</time>
      </trkpt>
      <trkpt lat="45.5649" lon="3.16059">
        <ele>511.99725</ele>
        <time>2012-08-24T13:12:56Z</time>
      </trkpt>
      <trkpt lat="45.5647" lon="3.16048">
        <ele>512.19135</ele>
        <time>2012-08-24T13:13:01Z</time>
      </trkpt>
      <trkpt lat="45.56448" lon="3.16045">
        <ele>512.4952</ele>
        <time>2012-08-24T13:13:05Z</time>
      </trkpt>
      <trkpt lat="45.56426" lon="3.16036">
        <ele>512.67926</ele>
        <time>2012-08-24T13:13:09Z</time>
      </trkpt>
      <trkpt lat="45.56406" lon="3.16019">
        <ele>512.6519</ele>
        <time>2012-08-24T13:13:13Z</time>
      </trkpt>
      <trkpt lat="45.5639" lon="3.16005">
        <ele>512.5115</ele>
        <time>2012-08-24T13:13:16Z</time>
      </trkpt>
      <trkpt lat="45.56372" lon="3.15989">
        <ele>512.5179</ele>
        <time>2012-08-24T13:13:19Z</time>
      </trkpt>
      <trkpt lat="45.56355" lon="3.15973">
        <ele>512.38306</ele>
        <time>2012-08-24T13:13:22Z</time>
      </trkpt>
      <trkpt lat="45.56335" lon="3.15957">
        <ele>512.1652</ele>
        <time>2012-08-24T13:13:25Z</time>
      </trkpt>
      <trkpt lat="45.56313" lon="3.15942">
        <ele>511.7093</ele>
        <time>2012-08-24T13:13:28Z</time>
      </trkpt>
      <trkpt lat="45.56289" lon="3.15927">
        <ele>511.02786</ele>
        <time>2012-08-24T13:13:31Z</time>
      </trkpt>
      <trkpt lat="45.56265" lon="3.15911">
        <ele>510.07788</ele>
        <time>2012-08-24T13:13:34Z</time>
      </trkpt>
      <trkpt lat="45.56248" lon="3.15898">
        <ele>509.529</ele>
        <time>2012-08-24T13:13:36Z</time>
      </trkpt>
      <trkpt lat="45.56231" lon="3.15887">
        <ele>508.75775</ele>
        <time>2012-08-24T13:13:38Z</time>
      </trkpt>
      <trkpt lat="45.56214" lon="3.15873">
        <ele>507.91766</ele>
        <time>2012-08-24T13:13:40Z</time>
      </trkpt>
      <trkpt lat="45.56196" lon="3.1586">
        <ele>507.05136</ele>
        <time>2012-08-24T13:13:42Z</time>
      </trkpt>
      <trkpt lat="45.56176" lon="3.15848">
        <ele>506.2266</ele>
        <time>2012-08-24T13:13:44Z</time>
      </trkpt>
      <trkpt lat="45.56157" lon="3.15836">
        <ele>505.48138</ele>
        <time>2012-08-24T13:13:46Z</time>
      </trkpt>
      <trkpt lat="45.56138" lon="3.15824">
        <ele>505.02472</ele>
        <time>2012-08-24T13:13:48Z</time>
      </trkpt>
      <trkpt lat="45.56119" lon="3.15813">
        <ele>504.46158</ele>
        <time>2012-08-24T13:13:50Z</time>
      </trkpt>
      <trkpt lat="45.56101" lon="3.15802">
        <ele>503.9261</ele>
        <time>2012-08-24T13:13:52Z</time>
      </trkpt>
      <trkpt lat="45.56084" lon="3.15791">
        <ele>504.03735</ele>
        <time>2012-08-24T13:13:54Z</time>
      </trkpt>
      <trkpt lat="45.56067" lon="3.15781">
        <ele>503.9562</ele>
        <time>2012-08-24T13:13:56Z</time>
      </trkpt>
      <trkpt lat="45.56049" lon="3.15771">
        <ele>503.86053</ele>
        <time>2012-08-24T13:13:58Z</time>
      </trkpt>
      <trkpt lat="45.56032" lon="3.15761">
        <ele>503.61923</ele>
        <time>2012-08-24T13:14:00Z</time>
      </trkpt>
      <trkpt lat="45.56015" lon="3.1575">
        <ele>503.48975</ele>
        <time>2012-08-24T13:14:02Z</time>
      </trkpt>
      <trkpt lat="45.5599" lon="3.15735">
        <ele>503.0993</ele>
        <time>2012-08-24T13:14:05Z</time>
      </trkpt>
      <trkpt lat="45.55966" lon="3.15717">
        <ele>502.60806</ele>
        <time>2012-08-24T13:14:08Z</time>
      </trkpt>
      <trkpt lat="45.55951" lon="3.15704">
        <ele>502.17722</ele>
        <time>2012-08-24T13:14:10Z</time>
      </trkpt>
      <trkpt lat="45.55927" lon="3.15685">
        <ele>502.54715</ele>
        <time>2012-08-24T13:14:13Z</time>
      </trkpt>
      <trkpt lat="45.55911" lon="3.15671">
        <ele>502.30545</ele>
        <time>2012-08-24T13:14:15Z</time>
      </trkpt>
      <trkpt lat="45.55895" lon="3.15658">
        <ele>501.76324</ele>
        <time>2012-08-24T13:14:17Z</time>
      </trkpt>
      <trkpt lat="45.55877" lon="3.15644">
        <ele>501.1895</ele>
        <time>2012-08-24T13:14:19Z</time>
      </trkpt>
      <trkpt lat="45.55859" lon="3.15631">
        <ele>500.3668</ele>
        <time>2012-08-24T13:14:21Z</time>
      </trkpt>
      <trkpt lat="45.55842" lon="3.15619">
        <ele>499.81024</ele>
        <time>2012-08-24T13:14:23Z</time>
      </trkpt>
      <trkpt lat="45.55823" lon="3.15607">
        <ele>499.05972</ele>
        <time>2012-08-24T13:14:25Z</time>
      </trkpt>
      <trkpt lat="45.55805" lon="3.15595">
        <ele>498.3813</ele>
        <time>2012-08-24T13:14:27Z</time>
      </trkpt>
      <trkpt lat="45.55786" lon="3.15585">
        <ele>497.67465</ele>
        <time>2012-08-24T13:14:29Z</time>
      </trkpt>
      <trkpt lat="45.55764" lon="3.15573">
        <ele>496.37888</ele>
        <time>2012-08-24T13:14:32Z</time>
      </trkpt>
      <trkpt lat="45.55749" lon="3.15587">
        <ele>493.99786</ele>
        <time>2012-08-24T13:14:35Z</time>
      </trkpt>
      <trkpt lat="45.55745" lon="3.15614">
        <ele>490.25586</ele>
        <time>2012-08-24T13:14:38Z</time>
      </trkpt>
      <trkpt lat="45.55738" lon="3.1564">
        <ele>488.00845</ele>
        <time>2012-08-24T13:14:41Z</time>
      </trkpt>
      <trkpt lat="45.55731" lon="3.15667">
        <ele>486.3444</ele>
        <time>2012-08-24T13:14:45Z</time>
      </trkpt>
      <trkpt lat="45.55731" lon="3.15697">
        <ele>486.96826</ele>
        <time>2012-08-24T13:14:50Z</time>
      </trkpt>
      <trkpt lat="45.55735" lon="3.15727">
        <ele>486.71887</ele>
        <time>2012-08-24T13:14:55Z</time>
      </trkpt>
      <trkpt lat="45.55737" lon="3.15758">
        <ele>486.8627</ele>
        <time>2012-08-24T13:15:00Z</time>
      </trkpt>
      <trkpt lat="45.55739" lon="3.15784">
        <ele>487.4545</ele>
        <time>2012-08-24T13:15:04Z</time>
      </trkpt>
      <trkpt lat="45.55743" lon="3.15811">
        <ele>487.90466</ele>
        <time>2012-08-24T13:15:08Z</time>
      </trkpt>
      <trkpt lat="45.55747" lon="3.15836">
        <ele>488.50333</ele>
        <time>2012-08-24T13:15:12Z</time>
      </trkpt>
      <trkpt lat="45.55751" lon="3.15866">
        <ele>489.17896</ele>
        <time>2012-08-24T13:15:17Z</time>
      </trkpt>
      <trkpt lat="45.55737" lon="3.15886">
        <ele>488.6601</ele>
        <time>2012-08-24T13:15:23Z</time>
      </trkpt>
      <trkpt lat="45.55717" lon="3.15882">
        <ele>488.55136</ele>
        <time>2012-08-24T13:15:27Z</time>
      </trkpt>
      <trkpt lat="45.55694" lon="3.1588">
        <ele>488.42435</ele>
        <time>2012-08-24T13:15:31Z</time>
      </trkpt>
      <trkpt lat="45.55671" lon="3.15879">
        <ele>488.64432</ele>
        <time>2012-08-24T13:15:35Z</time>
      </trkpt>
      <trkpt lat="45.55648" lon="3.15879">
        <ele>488.7608</ele>
        <time>2012-08-24T13:15:39Z</time>
      </trkpt>
      <trkpt lat="45.55626" lon="3.15881">
        <ele>489.01797</ele>
        <time>2012-08-24T13:15:43Z</time>
      </trkpt>
      <trkpt lat="45.55604" lon="3.15878">
        <ele>489.28958</ele>
        <time>2012-08-24T13:15:47Z</time>
      </trkpt>
      <trkpt lat="45.55582" lon="3.15874">
        <ele>489.42395</ele>
        <time>2012-08-24T13:15:51Z</time>
      </trkpt>
      <trkpt lat="45.55563" lon="3.15873">
        <ele>489.8778</ele>
        <time>2012-08-24T13:15:54Z</time>
      </trkpt>
      <trkpt lat="45.55545" lon="3.15869">
        <ele>490.15366</ele>
        <time>2012-08-24T13:15:57Z</time>
      </trkpt>
      <trkpt lat="45.55523" lon="3.15867">
        <ele>489.60596</ele>
        <time>2012-08-24T13:16:00Z</time>
      </trkpt>
      <trkpt lat="45.55499" lon="3.15865">
        <ele>487.9421</ele>
        <time>2012-08-24T13:16:03Z</time>
      </trkpt>
      <trkpt lat="45.55476" lon="3.15862">
        <ele>485.60577</ele>
        <time>2012-08-24T13:16:06Z</time>
      </trkpt>
      <trkpt lat="45.55454" lon="3.1586">
        <ele>482.4264</ele>
        <time>2012-08-24T13:16:09Z</time>
      </trkpt>
      <trkpt lat="45.55431" lon="3.15859">
        <ele>479.38663</ele>
        <time>2012-08-24T13:16:12Z</time>
      </trkpt>
      <trkpt lat="45.55413" lon="3.15856">
        <ele>477.15738</ele>
        <time>2012-08-24T13:16:15Z</time>
      </trkpt>
      <trkpt lat="45.55395" lon="3.15864">
        <ele>473.08636</ele>
        <time>2012-08-24T13:16:21Z</time>
      </trkpt>
      <trkpt lat="45.55395" lon="3.15892">
        <ele>468.71457</ele>
        <time>2012-08-24T13:16:26Z</time>
      </trkpt>
      <trkpt lat="45.55395" lon="3.1592">
        <ele>467.09436</ele>
        <time>2012-08-24T13:16:30Z</time>
      </trkpt>
      <trkpt lat="45.55394" lon="3.15952">
        <ele>465.91217</ele>
        <time>2012-08-24T13:16:34Z</time>
      </trkpt>
      <trkpt lat="45.55394" lon="3.15986">
        <ele>464.83188</ele>
        <time>2012-08-24T13:16:38Z</time>
      </trkpt>
      <trkpt lat="45.55394" lon="3.1602">
        <ele>463.83774</ele>
        <time>2012-08-24T13:16:42Z</time>
      </trkpt>
      <trkpt lat="45.55393" lon="3.16046">
        <ele>463.08206</ele>
        <time>2012-08-24T13:16:45Z</time>
      </trkpt>
      <trkpt lat="45.55392" lon="3.16072">
        <ele>462.50858</ele>
        <time>2012-08-24T13:16:48Z</time>
      </trkpt>
      <trkpt lat="45.55392" lon="3.16099">
        <ele>461.82913</ele>
        <time>2012-08-24T13:16:51Z</time>
      </trkpt>
      <trkpt lat="45.55392" lon="3.16126">
        <ele>461.6628</ele>
        <time>2012-08-24T13:16:54Z</time>
      </trkpt>
      <trkpt lat="45.55392" lon="3.16153">
        <ele>461.44107</ele>
        <time>2012-08-24T13:16:57Z</time>
      </trkpt>
      <trkpt lat="45.55392" lon="3.16186">
        <ele>461.2582</ele>
        <time>2012-08-24T13:17:01Z</time>
      </trkpt>
      <trkpt lat="45.5539" lon="3.16217">
        <ele>460.807</ele>
        <time>2012-08-24T13:17:05Z</time>
      </trkpt>
      <trkpt lat="45.55375" lon="3.16233">
        <ele>460.56815</ele>
        <time>2012-08-24T13:17:09Z</time>
      </trkpt>
      <trkpt lat="45.55354" lon="3.16229">
        <ele>460.3824</ele>
        <time>2012-08-24T13:17:12Z</time>
      </trkpt>
      <trkpt lat="45.5533" lon="3.16227">
        <ele>460.15872</ele>
        <time>2012-08-24T13:17:15Z</time>
      </trkpt>
      <trkpt lat="45.55304" lon="3.16225">
        <ele>460.0456</ele>
        <time>2012-08-24T13:17:18Z</time>
      </trkpt>
      <trkpt lat="45.55278" lon="3.16224">
        <ele>460.3135</ele>
        <time>2012-08-24T13:17:21Z</time>
      </trkpt>
      <trkpt lat="45.55259" lon="3.16223">
        <ele>460.37402</ele>
        <time>2012-08-24T13:17:23Z</time>
      </trkpt>
      <trkpt lat="45.55241" lon="3.16223">
        <ele>460.30807</ele>
        <time>2012-08-24T13:17:25Z</time>
      </trkpt>
      <trkpt lat="45.55221" lon="3.16222">
        <ele>460.85223</ele>
        <time>2012-08-24T13:17:27Z</time>
      </trkpt>
      <trkpt lat="45.55202" lon="3.16222">
        <ele>461.28333</ele>
        <time>2012-08-24T13:17:29Z</time>
      </trkpt>
      <trkpt lat="45.55184" lon="3.16221">
        <ele>461.25082</ele>
        <time>2012-08-24T13:17:31Z</time>
      </trkpt>
      <trkpt lat="45.55165" lon="3.16221">
        <ele>461.28253</ele>
        <time>2012-08-24T13:17:33Z</time>
      </trkpt>
      <trkpt lat="45.55138" lon="3.16221">
        <ele>461.20566</ele>
        <time>2012-08-24T13:17:36Z</time>
      </trkpt>
      <trkpt lat="45.55111" lon="3.16221">
        <ele>461.3232</ele>
        <time>2012-08-24T13:17:39Z</time>
      </trkpt>
      <trkpt lat="45.55092" lon="3.16219">
        <ele>461.30765</ele>
        <time>2012-08-24T13:17:43Z</time>
      </trkpt>
      <trkpt lat="45.55073" lon="3.16217">
        <ele>462.00183</ele>
        <time>2012-08-24T13:17:49Z</time>
      </trkpt>
      <trkpt lat="45.5505" lon="3.16215">
        <ele>461.75284</ele>
        <time>2012-08-24T13:17:53Z</time>
      </trkpt>
      <trkpt lat="45.55029" lon="3.16213">
        <ele>461.46344</ele>
        <time>2012-08-24T13:17:56Z</time>
      </trkpt>
      <trkpt lat="45.55009" lon="3.16211">
        <ele>461.2226</ele>
        <time>2012-08-24T13:17:59Z</time>
      </trkpt>
      <trkpt lat="45.54987" lon="3.16211">
        <ele>460.9788</ele>
        <time>2012-08-24T13:18:02Z</time>
      </trkpt>
      <trkpt lat="45.54966" lon="3.16212">
        <ele>460.88376</ele>
        <time>2012-08-24T13:18:05Z</time>
      </trkpt>
      <trkpt lat="45.54948" lon="3.16213">
        <ele>460.88116</ele>
        <time>2012-08-24T13:18:08Z</time>
      </trkpt>
      <trkpt lat="45.54926" lon="3.16212">
        <ele>460.7707</ele>
        <time>2012-08-24T13:18:11Z</time>
      </trkpt>
      <trkpt lat="45.54907" lon="3.16215">
        <ele>460.71158</ele>
        <time>2012-08-24T13:18:14Z</time>
      </trkpt>
      <trkpt lat="45.54888" lon="3.16219">
        <ele>460.72104</ele>
        <time>2012-08-24T13:18:17Z</time>
      </trkpt>
      <trkpt lat="45.54862" lon="3.16219">
        <ele>460.7297</ele>
        <time>2012-08-24T13:18:20Z</time>
      </trkpt>
      <trkpt lat="45.54838" lon="3.16221">
        <ele>460.80054</ele>
        <time>2012-08-24T13:18:23Z</time>
      </trkpt>
      <trkpt lat="45.54814" lon="3.16219">
        <ele>460.65387</ele>
        <time>2012-08-24T13:18:26Z</time>
      </trkpt>
      <trkpt lat="45.54794" lon="3.16216">
        <ele>460.43573</ele>
        <time>2012-08-24T13:18:29Z</time>
      </trkpt>
      <trkpt lat="45.54773" lon="3.16215">
        <ele>460.2281</ele>
        <time>2012-08-24T13:18:32Z</time>
      </trkpt>
      <trkpt lat="45.54752" lon="3.16217">
        <ele>460.2983</ele>
        <time>2012-08-24T13:18:35Z</time>
      </trkpt>
      <trkpt lat="45.54732" lon="3.16218">
        <ele>460.3623</ele>
        <time>2012-08-24T13:18:38Z</time>
      </trkpt>
      <trkpt lat="45.54711" lon="3.16219">
        <ele>463.4065</ele>
        <time>2012-08-24T13:18:41Z</time>
      </trkpt>
      <trkpt lat="45.54687" lon="3.16216">
        <ele>466.05624</ele>
        <time>2012-08-24T13:18:45Z</time>
      </trkpt>
      <trkpt lat="45.54667" lon="3.16219">
        <ele>467.6634</ele>
        <time>2012-08-24T13:18:49Z</time>
      </trkpt>
      <trkpt lat="45.54648" lon="3.16216">
        <ele>468.81528</ele>
        <time>2012-08-24T13:18:53Z</time>
      </trkpt>
      <trkpt lat="45.54629" lon="3.16213">
        <ele>469.38596</ele>
        <time>2012-08-24T13:18:57Z</time>
      </trkpt>
      <trkpt lat="45.54609" lon="3.16212">
        <ele>469.93167</ele>
        <time>2012-08-24T13:19:03Z</time>
      </trkpt>
      <trkpt lat="45.54588" lon="3.16209">
        <ele>470.4513</ele>
        <time>2012-08-24T13:19:08Z</time>
      </trkpt>
      <trkpt lat="45.54566" lon="3.16209">
        <ele>471.38138</ele>
        <time>2012-08-24T13:19:12Z</time>
      </trkpt>
      <trkpt lat="45.54546" lon="3.16216">
        <ele>471.48615</ele>
        <time>2012-08-24T13:19:17Z</time>
      </trkpt>
      <trkpt lat="45.5454" lon="3.16244">
        <ele>470.0889</ele>
        <time>2012-08-24T13:19:21Z</time>
      </trkpt>
      <trkpt lat="45.54519" lon="3.16256">
        <ele>469.57883</ele>
        <time>2012-08-24T13:19:26Z</time>
      </trkpt>
      <trkpt lat="45.54496" lon="3.16256">
        <ele>469.80884</ele>
        <time>2012-08-24T13:19:30Z</time>
      </trkpt>
      <trkpt lat="45.54476" lon="3.16259">
        <ele>470.1523</ele>
        <time>2012-08-24T13:19:34Z</time>
      </trkpt>
      <trkpt lat="45.54456" lon="3.16258">
        <ele>470.63248</ele>
        <time>2012-08-24T13:19:38Z</time>
      </trkpt>
      <trkpt lat="45.54433" lon="3.16258">
        <ele>469.93488</ele>
        <time>2012-08-24T13:19:43Z</time>
      </trkpt>
      <trkpt lat="45.54413" lon="3.16255">
        <ele>469.20648</ele>
        <time>2012-08-24T13:19:49Z</time>
      </trkpt>
      <trkpt lat="45.54394" lon="3.16245">
        <ele>468.1454</ele>
        <time>2012-08-24T13:19:55Z</time>
      </trkpt>
      <trkpt lat="45.54375" lon="3.1624">
        <ele>467.19788</ele>
        <time>2012-08-24T13:19:59Z</time>
      </trkpt>
      <trkpt lat="45.54355" lon="3.16242">
        <ele>470.0614</ele>
        <time>2012-08-24T13:20:06Z</time>
      </trkpt>
      <trkpt lat="45.54344" lon="3.16266">
        <ele>462.94012</ele>
        <time>2012-08-24T13:20:15Z</time>
      </trkpt>
      <trkpt lat="45.54335" lon="3.16291">
        <ele>461.08594</ele>
        <time>2012-08-24T13:20:24Z</time>
      </trkpt>
      <trkpt lat="45.54324" lon="3.16313">
        <ele>461.34323</ele>
        <time>2012-08-24T13:20:33Z</time>
      </trkpt>
      <trkpt lat="45.54307" lon="3.16328">
        <ele>462.20822</ele>
        <time>2012-08-24T13:20:42Z</time>
      </trkpt>
      <trkpt lat="45.54288" lon="3.16337">
        <ele>464.52463</ele>
        <time>2012-08-24T13:20:52Z</time>
      </trkpt>
      <trkpt lat="45.54272" lon="3.16348">
        <ele>466.64655</ele>
        <time>2012-08-24T13:21:00Z</time>
      </trkpt>
      <trkpt lat="45.5426" lon="3.1637">
        <ele>470.2342</ele>
        <time>2012-08-24T13:21:09Z</time>
      </trkpt>
      <trkpt lat="45.5425" lon="3.16394">
        <ele>472.8765</ele>
        <time>2012-08-24T13:21:19Z</time>
      </trkpt>
      <trkpt lat="45.54237" lon="3.16413">
        <ele>475.85626</ele>
        <time>2012-08-24T13:21:30Z</time>
      </trkpt>
      <trkpt lat="45.54225" lon="3.16433">
        <ele>477.77393</ele>
        <time>2012-08-24T13:21:39Z</time>
      </trkpt>
      <trkpt lat="45.54217" lon="3.16459">
        <ele>479.16586</ele>
        <time>2012-08-24T13:21:50Z</time>
      </trkpt>
      <trkpt lat="45.5421" lon="3.16483">
        <ele>480.00198</ele>
        <time>2012-08-24T13:21:58Z</time>
      </trkpt>
      <trkpt lat="45.54198" lon="3.16503">
        <ele>481.72302</ele>
        <time>2012-08-24T13:22:08Z</time>
      </trkpt>
      <trkpt lat="45.54184" lon="3.16519">
        <ele>484.41995</ele>
        <time>2012-08-24T13:22:16Z</time>
      </trkpt>
      <trkpt lat="45.54175" lon="3.16541">
        <ele>488.4761</ele>
        <time>2012-08-24T13:22:27Z</time>
      </trkpt>
      <trkpt lat="45.54161" lon="3.16558">
        <ele>490.71997</ele>
        <time>2012-08-24T13:22:34Z</time>
      </trkpt>
      <trkpt lat="45.54152" lon="3.16582">
        <ele>494.16434</ele>
        <time>2012-08-24T13:22:42Z</time>
      </trkpt>
      <trkpt lat="45.54147" lon="3.16609">
        <ele>495.83603</ele>
        <time>2012-08-24T13:22:53Z</time>
      </trkpt>
      <trkpt lat="45.54139" lon="3.16635">
        <ele>502.74762</ele>
        <time>2012-08-24T13:23:04Z</time>
      </trkpt>
      <trkpt lat="45.54134" lon="3.1666">
        <ele>507.8937</ele>
        <time>2012-08-24T13:23:13Z</time>
      </trkpt>
      <trkpt lat="45.5414" lon="3.16686">
        <ele>507.4379</ele>
        <time>2012-08-24T13:23:20Z</time>
      </trkpt>
      <trkpt lat="45.54135" lon="3.16712">
        <ele>506.9451</ele>
        <time>2012-08-24T13:23:28Z</time>
      </trkpt>
      <trkpt lat="45.54115" lon="3.16725">
        <ele>506.94083</ele>
        <time>2012-08-24T13:23:34Z</time>
      </trkpt>
      <trkpt lat="45.54097" lon="3.16727">
        <ele>507.75092</ele>
        <time>2012-08-24T13:23:41Z</time>
      </trkpt>
      <trkpt lat="45.54112" lon="3.16712">
        <ele>511.94662</ele>
        <time>2012-08-24T13:23:54Z</time>
      </trkpt>
      <trkpt lat="45.54114" lon="3.16684">
        <ele>522.096</ele>
        <time>2012-08-24T13:26:28Z</time>
      </trkpt>
      <trkpt lat="45.54105" lon="3.16661">
        <ele>524.66205</ele>
        <time>2012-08-24T13:26:36Z</time>
      </trkpt>
      <trkpt lat="45.541" lon="3.16634">
        <ele>527.3819</ele>
        <time>2012-08-24T13:26:44Z</time>
      </trkpt>
      <trkpt lat="45.54092" lon="3.16607">
        <ele>530.422</ele>
        <time>2012-08-24T13:26:52Z</time>
      </trkpt>
      <trkpt lat="45.54081" lon="3.16583">
        <ele>533.29504</ele>
        <time>2012-08-24T13:27:00Z</time>
      </trkpt>
      <trkpt lat="45.54073" lon="3.16557">
        <ele>536.28784</ele>
        <time>2012-08-24T13:27:08Z</time>
      </trkpt>
      <trkpt lat="45.54072" lon="3.16528">
        <ele>537.3139</ele>
        <time>2012-08-24T13:27:15Z</time>
      </trkpt>
      <trkpt lat="45.54071" lon="3.16501">
        <ele>539.8699</ele>
        <time>2012-08-24T13:27:22Z</time>
      </trkpt>
      <trkpt lat="45.54065" lon="3.16477">
        <ele>539.8283</ele>
        <time>2012-08-24T13:27:32Z</time>
      </trkpt>
      <trkpt lat="45.54063" lon="3.16449">
        <ele>542.3298</ele>
        <time>2012-08-24T13:27:40Z</time>
      </trkpt>
      <trkpt lat="45.54067" lon="3.16422">
        <ele>543.8399</ele>
        <time>2012-08-24T13:27:49Z</time>
      </trkpt>
      <trkpt lat="45.54068" lon="3.16396">
        <ele>544.58997</ele>
        <time>2012-08-24T13:27:58Z</time>
      </trkpt>
      <trkpt lat="45.54067" lon="3.1637">
        <ele>547.4607</ele>
        <time>2012-08-24T13:28:18Z</time>
      </trkpt>
      <trkpt lat="45.54061" lon="3.16344">
        <ele>548.882</ele>
        <time>2012-08-24T13:28:29Z</time>
      </trkpt>
      <trkpt lat="45.54055" lon="3.16318">
        <ele>552.02075</ele>
        <time>2012-08-24T13:28:44Z</time>
      </trkpt>
      <trkpt lat="45.54051" lon="3.16291">
        <ele>552.2058</ele>
        <time>2012-08-24T13:28:54Z</time>
      </trkpt>
      <trkpt lat="45.54042" lon="3.16268">
        <ele>554.21326</ele>
        <time>2012-08-24T13:29:22Z</time>
      </trkpt>
      <trkpt lat="45.54031" lon="3.16246">
        <ele>555.7049</ele>
        <time>2012-08-24T13:29:45Z</time>
      </trkpt>
      <trkpt lat="45.54022" lon="3.16222">
        <ele>556.5913</ele>
        <time>2012-08-24T13:29:56Z</time>
      </trkpt>
      <trkpt lat="45.54016" lon="3.16197">
        <ele>555.3269</ele>
        <time>2012-08-24T13:30:09Z</time>
      </trkpt>
      <trkpt lat="45.54006" lon="3.16175">
        <ele>558.5171</ele>
        <time>2012-08-24T13:30:20Z</time>
      </trkpt>
      <trkpt lat="45.54" lon="3.16151">
        <ele>557.6234</ele>
        <time>2012-08-24T13:30:31Z</time>
      </trkpt>
      <trkpt lat="45.53992" lon="3.16124">
        <ele>558.3232</ele>
        <time>2012-08-24T13:30:42Z</time>
      </trkpt>
      <trkpt lat="45.53985" lon="3.16097">
        <ele>560.08954</ele>
        <time>2012-08-24T13:30:52Z</time>
      </trkpt>
      <trkpt lat="45.53975" lon="3.16073">
        <ele>560.85693</ele>
        <time>2012-08-24T13:31:00Z</time>
      </trkpt>
      <trkpt lat="45.53963" lon="3.1605">
        <ele>561.52216</ele>
        <time>2012-08-24T13:31:07Z</time>
      </trkpt>
      <trkpt lat="45.53952" lon="3.16027">
        <ele>563.27734</ele>
        <time>2012-08-24T13:31:15Z</time>
      </trkpt>
      <trkpt lat="45.53943" lon="3.16002">
        <ele>564.6207</ele>
        <time>2012-08-24T13:31:22Z</time>
      </trkpt>
      <trkpt lat="45.53932" lon="3.15978">
        <ele>566.65924</ele>
        <time>2012-08-24T13:31:29Z</time>
      </trkpt>
      <trkpt lat="45.5392" lon="3.15952">
        <ele>565.9445</ele>
        <time>2012-08-24T13:31:34Z</time>
      </trkpt>
      <trkpt lat="45.53911" lon="3.15929">
        <ele>564.6052</ele>
        <time>2012-08-24T13:31:39Z</time>
      </trkpt>
      <trkpt lat="45.53901" lon="3.15904">
        <ele>564.6133</ele>
        <time>2012-08-24T13:31:46Z</time>
      </trkpt>
      <trkpt lat="45.53891" lon="3.15877">
        <ele>565.03436</ele>
        <time>2012-08-24T13:31:54Z</time>
      </trkpt>
      <trkpt lat="45.53882" lon="3.15851">
        <ele>566.83154</ele>
        <time>2012-08-24T13:32:01Z</time>
      </trkpt>
      <trkpt lat="45.53872" lon="3.15827">
        <ele>568.3041</ele>
        <time>2012-08-24T13:32:08Z</time>
      </trkpt>
      <trkpt lat="45.53866" lon="3.15799">
        <ele>570.51056</ele>
        <time>2012-08-24T13:32:17Z</time>
      </trkpt>
      <trkpt lat="45.53862" lon="3.15774">
        <ele>570.88763</ele>
        <time>2012-08-24T13:32:25Z</time>
      </trkpt>
      <trkpt lat="45.53861" lon="3.15747">
        <ele>572.2155</ele>
        <time>2012-08-24T13:32:34Z</time>
      </trkpt>
      <trkpt lat="45.5386" lon="3.1572">
        <ele>574.6487</ele>
        <time>2012-08-24T13:32:44Z</time>
      </trkpt>
      <trkpt lat="45.53863" lon="3.15694">
        <ele>575.9343</ele>
        <time>2012-08-24T13:32:55Z</time>
      </trkpt>
      <trkpt lat="45.53861" lon="3.15668">
        <ele>579.33936</ele>
        <time>2012-08-24T13:33:06Z</time>
      </trkpt>
      <trkpt lat="45.5386" lon="3.15641">
        <ele>585.3407</ele>
        <time>2012-08-24T13:33:18Z</time>
      </trkpt>
      <trkpt lat="45.5386" lon="3.15614">
        <ele>588.19196</ele>
        <time>2012-08-24T13:33:31Z</time>
      </trkpt>
      <trkpt lat="45.53846" lon="3.15594">
        <ele>590.53546</ele>
        <time>2012-08-24T13:33:41Z</time>
      </trkpt>
      <trkpt lat="45.53833" lon="3.15576">
        <ele>590.75836</ele>
        <time>2012-08-24T13:33:46Z</time>
      </trkpt>
      <trkpt lat="45.53819" lon="3.15556">
        <ele>588.8703</ele>
        <time>2012-08-24T13:33:51Z</time>
      </trkpt>
      <trkpt lat="45.53805" lon="3.15537">
        <ele>589.0598</ele>
        <time>2012-08-24T13:33:58Z</time>
      </trkpt>
      <trkpt lat="45.53789" lon="3.15522">
        <ele>590.7016</ele>
        <time>2012-08-24T13:34:06Z</time>
      </trkpt>
      <trkpt lat="45.53774" lon="3.15503">
        <ele>589.5047</ele>
        <time>2012-08-24T13:34:10Z</time>
      </trkpt>
      <trkpt lat="45.53757" lon="3.15485">
        <ele>587.99164</ele>
        <time>2012-08-24T13:34:14Z</time>
      </trkpt>
      <trkpt lat="45.53741" lon="3.15467">
        <ele>586.7326</ele>
        <time>2012-08-24T13:34:19Z</time>
      </trkpt>
      <trkpt lat="45.53722" lon="3.15474">
        <ele>585.4929</ele>
        <time>2012-08-24T13:34:24Z</time>
      </trkpt>
      <trkpt lat="45.53705" lon="3.15483">
        <ele>584.67773</ele>
        <time>2012-08-24T13:34:28Z</time>
      </trkpt>
      <trkpt lat="45.53687" lon="3.15491">
        <ele>584.98944</ele>
        <time>2012-08-24T13:34:36Z</time>
      </trkpt>
      <trkpt lat="45.53667" lon="3.15495">
        <ele>585.2674</ele>
        <time>2012-08-24T13:34:45Z</time>
      </trkpt>
      <trkpt lat="45.53651" lon="3.15483">
        <ele>586.02515</ele>
        <time>2012-08-24T13:34:53Z</time>
      </trkpt>
      <trkpt lat="45.53635" lon="3.15467">
        <ele>588.70795</ele>
        <time>2012-08-24T13:35:00Z</time>
      </trkpt>
      <trkpt lat="45.53618" lon="3.15454">
        <ele>591.00714</ele>
        <time>2012-08-24T13:35:07Z</time>
      </trkpt>
      <trkpt lat="45.53607" lon="3.15429">
        <ele>592.65125</ele>
        <time>2012-08-24T13:35:16Z</time>
      </trkpt>
      <trkpt lat="45.53597" lon="3.15408">
        <ele>595.06885</ele>
        <time>2012-08-24T13:35:23Z</time>
      </trkpt>
      <trkpt lat="45.53588" lon="3.15383">
        <ele>597.2904</ele>
        <time>2012-08-24T13:35:30Z</time>
      </trkpt>
      <trkpt lat="45.53575" lon="3.15365">
        <ele>600.0272</ele>
        <time>2012-08-24T13:35:37Z</time>
      </trkpt>
      <trkpt lat="45.5356" lon="3.15347">
        <ele>602.1083</ele>
        <time>2012-08-24T13:35:43Z</time>
      </trkpt>
      <trkpt lat="45.53546" lon="3.15327">
        <ele>603.92773</ele>
        <time>2012-08-24T13:35:50Z</time>
      </trkpt>
      <trkpt lat="45.53535" lon="3.15305">
        <ele>604.99695</ele>
        <time>2012-08-24T13:35:56Z</time>
      </trkpt>
      <trkpt lat="45.5352" lon="3.15287">
        <ele>604.7194</ele>
        <time>2012-08-24T13:36:04Z</time>
      </trkpt>
      <trkpt lat="45.53502" lon="3.15281">
        <ele>606.39954</ele>
        <time>2012-08-24T13:36:11Z</time>
      </trkpt>
      <trkpt lat="45.53485" lon="3.15295">
        <ele>606.14746</ele>
        <time>2012-08-24T13:36:17Z</time>
      </trkpt>
      <trkpt lat="45.53464" lon="3.15297">
        <ele>607.78235</ele>
        <time>2012-08-24T13:36:25Z</time>
      </trkpt>
      <trkpt lat="45.53447" lon="3.15283">
        <ele>609.3807</ele>
        <time>2012-08-24T13:36:31Z</time>
      </trkpt>
      <trkpt lat="45.5343" lon="3.15271">
        <ele>610.08734</ele>
        <time>2012-08-24T13:36:37Z</time>
      </trkpt>
      <trkpt lat="45.53413" lon="3.15257">
        <ele>608.8659</ele>
        <time>2012-08-24T13:36:45Z</time>
      </trkpt>
      <trkpt lat="45.53392" lon="3.15248">
        <ele>608.4494</ele>
        <time>2012-08-24T13:36:54Z</time>
      </trkpt>
      <trkpt lat="45.53374" lon="3.15242">
        <ele>608.5418</ele>
        <time>2012-08-24T13:37:00Z</time>
      </trkpt>
      <trkpt lat="45.53353" lon="3.15246">
        <ele>609.588</ele>
        <time>2012-08-24T13:37:07Z</time>
      </trkpt>
      <trkpt lat="45.53335" lon="3.15242">
        <ele>610.39453</ele>
        <time>2012-08-24T13:37:11Z</time>
      </trkpt>
      <trkpt lat="45.53314" lon="3.15235">
        <ele>610.381</ele>
        <time>2012-08-24T13:37:15Z</time>
      </trkpt>
      <trkpt lat="45.53294" lon="3.15225">
        <ele>608.35925</ele>
        <time>2012-08-24T13:37:21Z</time>
      </trkpt>
      <trkpt lat="45.53275" lon="3.15216">
        <ele>608.09875</ele>
        <time>2012-08-24T13:37:27Z</time>
      </trkpt>
      <trkpt lat="45.53267" lon="3.15241">
        <ele>593.2633</ele>
        <time>2012-08-24T13:37:41Z</time>
      </trkpt>
      <trkpt lat="45.53276" lon="3.1527">
        <ele>584.7542</ele>
        <time>2012-08-24T13:37:46Z</time>
      </trkpt>
      <trkpt lat="45.53287" lon="3.15293">
        <ele>579.46625</ele>
        <time>2012-08-24T13:37:50Z</time>
      </trkpt>
      <trkpt lat="45.53304" lon="3.15312">
        <ele>577.0736</ele>
        <time>2012-08-24T13:37:54Z</time>
      </trkpt>
      <trkpt lat="45.53318" lon="3.15335">
        <ele>576.1097</ele>
        <time>2012-08-24T13:37:57Z</time>
      </trkpt>
      <trkpt lat="45.53336" lon="3.15355">
        <ele>575.4796</ele>
        <time>2012-08-24T13:38:00Z</time>
      </trkpt>
      <trkpt lat="45.53357" lon="3.15371">
        <ele>575.23566</ele>
        <time>2012-08-24T13:38:03Z</time>
      </trkpt>
      <trkpt lat="45.53378" lon="3.1539">
        <ele>575.0906</ele>
        <time>2012-08-24T13:38:06Z</time>
      </trkpt>
      <trkpt lat="45.53393" lon="3.15411">
        <ele>574.9809</ele>
        <time>2012-08-24T13:38:09Z</time>
      </trkpt>
      <trkpt lat="45.53405" lon="3.15434">
        <ele>574.77374</ele>
        <time>2012-08-24T13:38:12Z</time>
      </trkpt>
      <trkpt lat="45.53421" lon="3.15457">
        <ele>574.5847</ele>
        <time>2012-08-24T13:38:15Z</time>
      </trkpt>
      <trkpt lat="45.53434" lon="3.15482">
        <ele>573.40814</ele>
        <time>2012-08-24T13:38:18Z</time>
      </trkpt>
      <trkpt lat="45.53444" lon="3.15511">
        <ele>571.6274</ele>
        <time>2012-08-24T13:38:21Z</time>
      </trkpt>
      <trkpt lat="45.53459" lon="3.15534">
        <ele>568.898</ele>
        <time>2012-08-24T13:38:24Z</time>
      </trkpt>
      <trkpt lat="45.53472" lon="3.15561">
        <ele>566.46375</ele>
        <time>2012-08-24T13:38:27Z</time>
      </trkpt>
      <trkpt lat="45.53488" lon="3.15584">
        <ele>564.43365</ele>
        <time>2012-08-24T13:38:30Z</time>
      </trkpt>
      <trkpt lat="45.535" lon="3.1561">
        <ele>562.7147</ele>
        <time>2012-08-24T13:38:33Z</time>
      </trkpt>
      <trkpt lat="45.53517" lon="3.15629">
        <ele>561.72235</ele>
        <time>2012-08-24T13:38:36Z</time>
      </trkpt>
      <trkpt lat="45.53533" lon="3.15646">
        <ele>560.82715</ele>
        <time>2012-08-24T13:38:39Z</time>
      </trkpt>
      <trkpt lat="45.53553" lon="3.15666">
        <ele>560.0729</ele>
        <time>2012-08-24T13:38:42Z</time>
      </trkpt>
      <trkpt lat="45.5357" lon="3.15687">
        <ele>558.7531</ele>
        <time>2012-08-24T13:38:45Z</time>
      </trkpt>
      <trkpt lat="45.53588" lon="3.15703">
        <ele>557.112</ele>
        <time>2012-08-24T13:38:48Z</time>
      </trkpt>
      <trkpt lat="45.53608" lon="3.15718">
        <ele>555.76465</ele>
        <time>2012-08-24T13:38:52Z</time>
      </trkpt>
      <trkpt lat="45.5362" lon="3.15744">
        <ele>554.3881</ele>
        <time>2012-08-24T13:38:57Z</time>
      </trkpt>
      <trkpt lat="45.53617" lon="3.15772">
        <ele>553.8408</ele>
        <time>2012-08-24T13:39:00Z</time>
      </trkpt>
      <trkpt lat="45.53622" lon="3.15805">
        <ele>553.0349</ele>
        <time>2012-08-24T13:39:03Z</time>
      </trkpt>
      <trkpt lat="45.53619" lon="3.15833">
        <ele>551.3236</ele>
        <time>2012-08-24T13:39:05Z</time>
      </trkpt>
      <trkpt lat="45.53616" lon="3.15859">
        <ele>548.73596</ele>
        <time>2012-08-24T13:39:07Z</time>
      </trkpt>
      <trkpt lat="45.53603" lon="3.15881">
        <ele>545.9742</ele>
        <time>2012-08-24T13:39:09Z</time>
      </trkpt>
      <trkpt lat="45.53591" lon="3.15901">
        <ele>543.8394</ele>
        <time>2012-08-24T13:39:11Z</time>
      </trkpt>
      <trkpt lat="45.53578" lon="3.15926">
        <ele>541.2984</ele>
        <time>2012-08-24T13:39:14Z</time>
      </trkpt>
      <trkpt lat="45.53577" lon="3.15955">
        <ele>538.1342</ele>
        <time>2012-08-24T13:39:17Z</time>
      </trkpt>
      <trkpt lat="45.53588" lon="3.15983">
        <ele>535.9618</ele>
        <time>2012-08-24T13:39:20Z</time>
      </trkpt>
      <trkpt lat="45.53603" lon="3.16011">
        <ele>534.97974</ele>
        <time>2012-08-24T13:39:23Z</time>
      </trkpt>
      <trkpt lat="45.53618" lon="3.16037">
        <ele>534.592</ele>
        <time>2012-08-24T13:39:26Z</time>
      </trkpt>
      <trkpt lat="45.53629" lon="3.16065">
        <ele>534.37994</ele>
        <time>2012-08-24T13:39:29Z</time>
      </trkpt>
      <trkpt lat="45.53642" lon="3.16088">
        <ele>533.9936</ele>
        <time>2012-08-24T13:39:32Z</time>
      </trkpt>
      <trkpt lat="45.53658" lon="3.16104">
        <ele>533.66345</ele>
        <time>2012-08-24T13:39:35Z</time>
      </trkpt>
      <trkpt lat="45.53676" lon="3.16119">
        <ele>533.171</ele>
        <time>2012-08-24T13:39:38Z</time>
      </trkpt>
      <trkpt lat="45.53687" lon="3.16139">
        <ele>532.2617</ele>
        <time>2012-08-24T13:39:41Z</time>
      </trkpt>
      <trkpt lat="45.53679" lon="3.16165">
        <ele>531.2609</ele>
        <time>2012-08-24T13:39:44Z</time>
      </trkpt>
      <trkpt lat="45.5368" lon="3.16196">
        <ele>529.4028</ele>
        <time>2012-08-24T13:39:47Z</time>
      </trkpt>
      <trkpt lat="45.53683" lon="3.16222">
        <ele>528.34924</ele>
        <time>2012-08-24T13:39:49Z</time>
      </trkpt>
      <trkpt lat="45.53687" lon="3.16249">
        <ele>527.25665</ele>
        <time>2012-08-24T13:39:51Z</time>
      </trkpt>
      <trkpt lat="45.53692" lon="3.16274">
        <ele>525.7983</ele>
        <time>2012-08-24T13:39:53Z</time>
      </trkpt>
      <trkpt lat="45.53696" lon="3.16306">
        <ele>524.5155</ele>
        <time>2012-08-24T13:39:55Z</time>
      </trkpt>
      <trkpt lat="45.53702" lon="3.16337">
        <ele>523.1751</ele>
        <time>2012-08-24T13:39:57Z</time>
      </trkpt>
      <trkpt lat="45.5371" lon="3.16366">
        <ele>521.82745</ele>
        <time>2012-08-24T13:39:59Z</time>
      </trkpt>
      <trkpt lat="45.53718" lon="3.16398">
        <ele>520.89435</ele>
        <time>2012-08-24T13:40:01Z</time>
      </trkpt>
      <trkpt lat="45.53727" lon="3.1643">
        <ele>520.0695</ele>
        <time>2012-08-24T13:40:03Z</time>
      </trkpt>
      <trkpt lat="45.5374" lon="3.16461">
        <ele>518.6845</ele>
        <time>2012-08-24T13:40:06Z</time>
      </trkpt>
      <trkpt lat="45.53757" lon="3.16489">
        <ele>517.069</ele>
        <time>2012-08-24T13:40:09Z</time>
      </trkpt>
      <trkpt lat="45.53765" lon="3.16519">
        <ele>514.93896</ele>
        <time>2012-08-24T13:40:12Z</time>
      </trkpt>
      <trkpt lat="45.53767" lon="3.16546">
        <ele>513.3696</ele>
        <time>2012-08-24T13:40:14Z</time>
      </trkpt>
      <trkpt lat="45.53767" lon="3.16582">
        <ele>510.7752</ele>
        <time>2012-08-24T13:40:17Z</time>
      </trkpt>
      <trkpt lat="45.53769" lon="3.16618">
        <ele>508.41037</ele>
        <time>2012-08-24T13:40:20Z</time>
      </trkpt>
      <trkpt lat="45.53773" lon="3.16651">
        <ele>506.79865</ele>
        <time>2012-08-24T13:40:23Z</time>
      </trkpt>
      <trkpt lat="45.53779" lon="3.16683">
        <ele>505.80307</ele>
        <time>2012-08-24T13:40:26Z</time>
      </trkpt>
      <trkpt lat="45.53784" lon="3.16713">
        <ele>505.41586</ele>
        <time>2012-08-24T13:40:29Z</time>
      </trkpt>
      <trkpt lat="45.53794" lon="3.16743">
        <ele>505.0041</ele>
        <time>2012-08-24T13:40:32Z</time>
      </trkpt>
      <trkpt lat="45.53804" lon="3.16773">
        <ele>504.57565</ele>
        <time>2012-08-24T13:40:35Z</time>
      </trkpt>
      <trkpt lat="45.53815" lon="3.16805">
        <ele>503.98557</ele>
        <time>2012-08-24T13:40:38Z</time>
      </trkpt>
      <trkpt lat="45.53824" lon="3.16836">
        <ele>503.28973</ele>
        <time>2012-08-24T13:40:41Z</time>
      </trkpt>
      <trkpt lat="45.53833" lon="3.16869">
        <ele>502.71808</ele>
        <time>2012-08-24T13:40:44Z</time>
      </trkpt>
      <trkpt lat="45.53845" lon="3.16901">
        <ele>501.60187</ele>
        <time>2012-08-24T13:40:47Z</time>
      </trkpt>
      <trkpt lat="45.53851" lon="3.16931">
        <ele>500.95914</ele>
        <time>2012-08-24T13:40:50Z</time>
      </trkpt>
      <trkpt lat="45.53864" lon="3.16962">
        <ele>500.23953</ele>
        <time>2012-08-24T13:40:53Z</time>
      </trkpt>
      <trkpt lat="45.53882" lon="3.16987">
        <ele>498.89532</ele>
        <time>2012-08-24T13:40:56Z</time>
      </trkpt>
      <trkpt lat="45.53893" lon="3.17009">
        <ele>497.4763</ele>
        <time>2012-08-24T13:40:58Z</time>
      </trkpt>
      <trkpt lat="45.53904" lon="3.17032">
        <ele>496.2781</ele>
        <time>2012-08-24T13:41:00Z</time>
      </trkpt>
      <trkpt lat="45.5391" lon="3.17057">
        <ele>495.6541</ele>
        <time>2012-08-24T13:41:02Z</time>
      </trkpt>
      <trkpt lat="45.53922" lon="3.1709">
        <ele>494.99524</ele>
        <time>2012-08-24T13:41:05Z</time>
      </trkpt>
      <trkpt lat="45.53932" lon="3.17113">
        <ele>494.6075</ele>
        <time>2012-08-24T13:41:07Z</time>
      </trkpt>
      <trkpt lat="45.53941" lon="3.17136">
        <ele>493.8269</ele>
        <time>2012-08-24T13:41:09Z</time>
      </trkpt>
      <trkpt lat="45.53951" lon="3.1717">
        <ele>492.38998</ele>
        <time>2012-08-24T13:41:12Z</time>
      </trkpt>
      <trkpt lat="45.53956" lon="3.17204">
        <ele>491.91818</ele>
        <time>2012-08-24T13:41:15Z</time>
      </trkpt>
      <trkpt lat="45.53958" lon="3.1723">
        <ele>491.67667</ele>
        <time>2012-08-24T13:41:17Z</time>
      </trkpt>
      <trkpt lat="45.53961" lon="3.17256">
        <ele>491.25955</ele>
        <time>2012-08-24T13:41:19Z</time>
      </trkpt>
      <trkpt lat="45.53957" lon="3.17295">
        <ele>490.78345</ele>
        <time>2012-08-24T13:41:22Z</time>
      </trkpt>
      <trkpt lat="45.53956" lon="3.17323">
        <ele>490.3634</ele>
        <time>2012-08-24T13:41:24Z</time>
      </trkpt>
      <trkpt lat="45.53964" lon="3.17358">
        <ele>489.44913</ele>
        <time>2012-08-24T13:41:27Z</time>
      </trkpt>
      <trkpt lat="45.53971" lon="3.17387">
        <ele>488.50034</ele>
        <time>2012-08-24T13:41:29Z</time>
      </trkpt>
      <trkpt lat="45.53978" lon="3.17417">
        <ele>487.97913</ele>
        <time>2012-08-24T13:41:31Z</time>
      </trkpt>
      <trkpt lat="45.53982" lon="3.17447">
        <ele>487.14844</ele>
        <time>2012-08-24T13:41:33Z</time>
      </trkpt>
      <trkpt lat="45.5399" lon="3.1748">
        <ele>486.08743</ele>
        <time>2012-08-24T13:41:35Z</time>
      </trkpt>
      <trkpt lat="45.53996" lon="3.17511">
        <ele>484.47812</ele>
        <time>2012-08-24T13:41:37Z</time>
      </trkpt>
      <trkpt lat="45.54001" lon="3.17539">
        <ele>482.79788</ele>
        <time>2012-08-24T13:41:39Z</time>
      </trkpt>
      <trkpt lat="45.54005" lon="3.17565">
        <ele>481.26523</ele>
        <time>2012-08-24T13:41:41Z</time>
      </trkpt>
      <trkpt lat="45.54012" lon="3.1759">
        <ele>479.52814</ele>
        <time>2012-08-24T13:41:43Z</time>
      </trkpt>
      <trkpt lat="45.54017" lon="3.17615">
        <ele>477.87604</ele>
        <time>2012-08-24T13:41:45Z</time>
      </trkpt>
      <trkpt lat="45.54027" lon="3.1765">
        <ele>476.0029</ele>
        <time>2012-08-24T13:41:48Z</time>
      </trkpt>
      <trkpt lat="45.54031" lon="3.17684">
        <ele>474.6033</ele>
        <time>2012-08-24T13:41:51Z</time>
      </trkpt>
      <trkpt lat="45.54037" lon="3.17718">
        <ele>473.5988</ele>
        <time>2012-08-24T13:41:54Z</time>
      </trkpt>
      <trkpt lat="45.54044" lon="3.1775">
        <ele>472.8422</ele>
        <time>2012-08-24T13:41:57Z</time>
      </trkpt>
      <trkpt lat="45.5405" lon="3.17781">
        <ele>472.09177</ele>
        <time>2012-08-24T13:42:00Z</time>
      </trkpt>
      <trkpt lat="45.54056" lon="3.17811">
        <ele>471.13766</ele>
        <time>2012-08-24T13:42:03Z</time>
      </trkpt>
      <trkpt lat="45.54064" lon="3.17839">
        <ele>470.34766</ele>
        <time>2012-08-24T13:42:06Z</time>
      </trkpt>
      <trkpt lat="45.54069" lon="3.17865">
        <ele>469.1503</ele>
        <time>2012-08-24T13:42:09Z</time>
      </trkpt>
      <trkpt lat="45.54073" lon="3.17893">
        <ele>467.93112</ele>
        <time>2012-08-24T13:42:12Z</time>
      </trkpt>
      <trkpt lat="45.54081" lon="3.17923">
        <ele>466.47733</ele>
        <time>2012-08-24T13:42:16Z</time>
      </trkpt>
      <trkpt lat="45.54085" lon="3.1795">
        <ele>464.34625</ele>
        <time>2012-08-24T13:42:20Z</time>
      </trkpt>
      <trkpt lat="45.54091" lon="3.17976">
        <ele>461.76968</ele>
        <time>2012-08-24T13:42:26Z</time>
      </trkpt>
      <trkpt lat="45.54076" lon="3.17992">
        <ele>462.70853</ele>
        <time>2012-08-24T13:42:45Z</time>
      </trkpt>
      <trkpt lat="45.54057" lon="3.17993">
        <ele>463.93857</ele>
        <time>2012-08-24T13:42:54Z</time>
      </trkpt>
      <trkpt lat="45.54038" lon="3.17985">
        <ele>466.0308</ele>
        <time>2012-08-24T13:43:03Z</time>
      </trkpt>
      <trkpt lat="45.54019" lon="3.17978">
        <ele>467.41162</ele>
        <time>2012-08-24T13:43:12Z</time>
      </trkpt>
      <trkpt lat="45.54001" lon="3.17972">
        <ele>468.7353</ele>
        <time>2012-08-24T13:43:19Z</time>
      </trkpt>
      <trkpt lat="45.53983" lon="3.17963">
        <ele>469.47394</ele>
        <time>2012-08-24T13:43:26Z</time>
      </trkpt>
      <trkpt lat="45.53966" lon="3.17956">
        <ele>469.89978</ele>
        <time>2012-08-24T13:43:35Z</time>
      </trkpt>
      <trkpt lat="45.53946" lon="3.17954">
        <ele>471.24704</ele>
        <time>2012-08-24T13:43:44Z</time>
      </trkpt>
      <trkpt lat="45.53926" lon="3.17953">
        <ele>472.90668</ele>
        <time>2012-08-24T13:43:52Z</time>
      </trkpt>
      <trkpt lat="45.53907" lon="3.17957">
        <ele>474.73105</ele>
        <time>2012-08-24T13:44:01Z</time>
      </trkpt>
      <trkpt lat="45.5389" lon="3.17965">
        <ele>476.49603</ele>
        <time>2012-08-24T13:44:08Z</time>
      </trkpt>
      <trkpt lat="45.53873" lon="3.17976">
        <ele>477.73663</ele>
        <time>2012-08-24T13:44:15Z</time>
      </trkpt>
      <trkpt lat="45.53853" lon="3.17981">
        <ele>478.72205</ele>
        <time>2012-08-24T13:44:24Z</time>
      </trkpt>
      <trkpt lat="45.53834" lon="3.17976">
        <ele>480.58212</ele>
        <time>2012-08-24T13:44:32Z</time>
      </trkpt>
      <trkpt lat="45.53816" lon="3.17972">
        <ele>482.4342</ele>
        <time>2012-08-24T13:44:40Z</time>
      </trkpt>
      <trkpt lat="45.53797" lon="3.1797">
        <ele>484.80405</ele>
        <time>2012-08-24T13:44:48Z</time>
      </trkpt>
      <trkpt lat="45.53778" lon="3.17968">
        <ele>486.72894</ele>
        <time>2012-08-24T13:44:55Z</time>
      </trkpt>
      <trkpt lat="45.53759" lon="3.17968">
        <ele>488.2165</ele>
        <time>2012-08-24T13:45:02Z</time>
      </trkpt>
      <trkpt lat="45.5374" lon="3.17971">
        <ele>490.2104</ele>
        <time>2012-08-24T13:45:09Z</time>
      </trkpt>
      <trkpt lat="45.53721" lon="3.17974">
        <ele>492.21582</ele>
        <time>2012-08-24T13:45:17Z</time>
      </trkpt>
      <trkpt lat="45.53702" lon="3.17975">
        <ele>493.87473</ele>
        <time>2012-08-24T13:45:26Z</time>
      </trkpt>
      <trkpt lat="45.53681" lon="3.17975">
        <ele>494.4654</ele>
        <time>2012-08-24T13:45:32Z</time>
      </trkpt>
      <trkpt lat="45.53662" lon="3.17974">
        <ele>495.4353</ele>
        <time>2012-08-24T13:45:38Z</time>
      </trkpt>
      <trkpt lat="45.53643" lon="3.17975">
        <ele>499.30078</ele>
        <time>2012-08-24T13:45:44Z</time>
      </trkpt>
      <trkpt lat="45.53622" lon="3.17973">
        <ele>500.88513</ele>
        <time>2012-08-24T13:45:51Z</time>
      </trkpt>
      <trkpt lat="45.53602" lon="3.17969">
        <ele>500.47745</ele>
        <time>2012-08-24T13:45:59Z</time>
      </trkpt>
      <trkpt lat="45.53584" lon="3.17965">
        <ele>501.26288</ele>
        <time>2012-08-24T13:46:06Z</time>
      </trkpt>
      <trkpt lat="45.53565" lon="3.17963">
        <ele>502.823</ele>
        <time>2012-08-24T13:46:14Z</time>
      </trkpt>
      <trkpt lat="45.53547" lon="3.17959">
        <ele>503.70642</ele>
        <time>2012-08-24T13:46:20Z</time>
      </trkpt>
      <trkpt lat="45.53528" lon="3.17955">
        <ele>505.32904</ele>
        <time>2012-08-24T13:46:28Z</time>
      </trkpt>
      <trkpt lat="45.53507" lon="3.17954">
        <ele>507.0043</ele>
        <time>2012-08-24T13:46:35Z</time>
      </trkpt>
      <trkpt lat="45.53488" lon="3.17958">
        <ele>508.56644</ele>
        <time>2012-08-24T13:46:41Z</time>
      </trkpt>
      <trkpt lat="45.53468" lon="3.1797">
        <ele>508.86783</ele>
        <time>2012-08-24T13:46:48Z</time>
      </trkpt>
      <trkpt lat="45.53451" lon="3.17983">
        <ele>509.14355</ele>
        <time>2012-08-24T13:46:54Z</time>
      </trkpt>
      <trkpt lat="45.53434" lon="3.17995">
        <ele>508.78513</ele>
        <time>2012-08-24T13:47:02Z</time>
      </trkpt>
      <trkpt lat="45.53416" lon="3.18003">
        <ele>511.41687</ele>
        <time>2012-08-24T13:47:11Z</time>
      </trkpt>
      <trkpt lat="45.534" lon="3.18017">
        <ele>513.9227</ele>
        <time>2012-08-24T13:47:22Z</time>
      </trkpt>
      <trkpt lat="45.53383" lon="3.18028">
        <ele>516.2657</ele>
        <time>2012-08-24T13:47:30Z</time>
      </trkpt>
      <trkpt lat="45.53366" lon="3.18042">
        <ele>518.3698</ele>
        <time>2012-08-24T13:47:38Z</time>
      </trkpt>
      <trkpt lat="45.53351" lon="3.18057">
        <ele>519.0183</ele>
        <time>2012-08-24T13:47:48Z</time>
      </trkpt>
      <trkpt lat="45.53332" lon="3.18064">
        <ele>521.8182</ele>
        <time>2012-08-24T13:47:57Z</time>
      </trkpt>
      <trkpt lat="45.53314" lon="3.18072">
        <ele>523.34674</ele>
        <time>2012-08-24T13:48:06Z</time>
      </trkpt>
      <trkpt lat="45.53295" lon="3.18078">
        <ele>525.93207</ele>
        <time>2012-08-24T13:48:16Z</time>
      </trkpt>
      <trkpt lat="45.53278" lon="3.18089">
        <ele>527.6021</ele>
        <time>2012-08-24T13:48:23Z</time>
      </trkpt>
      <trkpt lat="45.53259" lon="3.18098">
        <ele>528.8986</ele>
        <time>2012-08-24T13:48:30Z</time>
      </trkpt>
      <trkpt lat="45.53242" lon="3.18108">
        <ele>532.0175</ele>
        <time>2012-08-24T13:48:40Z</time>
      </trkpt>
      <trkpt lat="45.53226" lon="3.18121">
        <ele>534.08344</ele>
        <time>2012-08-24T13:48:49Z</time>
      </trkpt>
      <trkpt lat="45.53206" lon="3.18125">
        <ele>535.8797</ele>
        <time>2012-08-24T13:48:59Z</time>
      </trkpt>
      <trkpt lat="45.53186" lon="3.18131">
        <ele>537.84174</ele>
        <time>2012-08-24T13:49:05Z</time>
      </trkpt>
      <trkpt lat="45.53169" lon="3.18141">
        <ele>540.0796</ele>
        <time>2012-08-24T13:49:16Z</time>
      </trkpt>
      <trkpt lat="45.53149" lon="3.18147">
        <ele>541.66095</ele>
        <time>2012-08-24T13:49:30Z</time>
      </trkpt>
      <trkpt lat="45.53129" lon="3.1815">
        <ele>542.6305</ele>
        <time>2012-08-24T13:49:34Z</time>
      </trkpt>
      <trkpt lat="45.5311" lon="3.18157">
        <ele>543.90955</ele>
        <time>2012-08-24T13:49:40Z</time>
      </trkpt>
      <trkpt lat="45.53091" lon="3.18165">
        <ele>544.05725</ele>
        <time>2012-08-24T13:49:46Z</time>
      </trkpt>
      <trkpt lat="45.53071" lon="3.1817">
        <ele>546.2039</ele>
        <time>2012-08-24T13:49:53Z</time>
      </trkpt>
      <trkpt lat="45.53053" lon="3.18178">
        <ele>548.4631</ele>
        <time>2012-08-24T13:50:01Z</time>
      </trkpt>
      <trkpt lat="45.53034" lon="3.18189">
        <ele>549.0825</ele>
        <time>2012-08-24T13:50:10Z</time>
      </trkpt>
      <trkpt lat="45.53016" lon="3.18199">
        <ele>551.08453</ele>
        <time>2012-08-24T13:50:19Z</time>
      </trkpt>
      <trkpt lat="45.52997" lon="3.18208">
        <ele>552.4573</ele>
        <time>2012-08-24T13:50:29Z</time>
      </trkpt>
      <trkpt lat="45.5298" lon="3.18222">
        <ele>552.1832</ele>
        <time>2012-08-24T13:50:40Z</time>
      </trkpt>
      <trkpt lat="45.52961" lon="3.18232">
        <ele>554.5251</ele>
        <time>2012-08-24T13:50:51Z</time>
      </trkpt>
      <trkpt lat="45.52944" lon="3.18246">
        <ele>555.7141</ele>
        <time>2012-08-24T13:50:59Z</time>
      </trkpt>
      <trkpt lat="45.52932" lon="3.18268">
        <ele>555.46265</ele>
        <time>2012-08-24T13:51:09Z</time>
      </trkpt>
      <trkpt lat="45.52919" lon="3.18288">
        <ele>557.76196</ele>
        <time>2012-08-24T13:51:16Z</time>
      </trkpt>
      <trkpt lat="45.52905" lon="3.18305">
        <ele>559.0572</ele>
        <time>2012-08-24T13:51:22Z</time>
      </trkpt>
      <trkpt lat="45.52892" lon="3.18323">
        <ele>560.66223</ele>
        <time>2012-08-24T13:51:27Z</time>
      </trkpt>
      <trkpt lat="45.52877" lon="3.18347">
        <ele>560.5098</ele>
        <time>2012-08-24T13:51:32Z</time>
      </trkpt>
      <trkpt lat="45.52864" lon="3.18371">
        <ele>559.6382</ele>
        <time>2012-08-24T13:51:36Z</time>
      </trkpt>
      <trkpt lat="45.52849" lon="3.18398">
        <ele>559.41626</ele>
        <time>2012-08-24T13:51:40Z</time>
      </trkpt>
      <trkpt lat="45.52837" lon="3.18419">
        <ele>559.3246</ele>
        <time>2012-08-24T13:51:43Z</time>
      </trkpt>
      <trkpt lat="45.52824" lon="3.18442">
        <ele>559.4307</ele>
        <time>2012-08-24T13:51:47Z</time>
      </trkpt>
      <trkpt lat="45.52807" lon="3.18465">
        <ele>558.9561</ele>
        <time>2012-08-24T13:51:51Z</time>
      </trkpt>
      <trkpt lat="45.52794" lon="3.18484">
        <ele>558.68823</ele>
        <time>2012-08-24T13:51:54Z</time>
      </trkpt>
      <trkpt lat="45.52781" lon="3.18504">
        <ele>558.3971</ele>
        <time>2012-08-24T13:51:57Z</time>
      </trkpt>
      <trkpt lat="45.52768" lon="3.18523">
        <ele>558.44617</ele>
        <time>2012-08-24T13:52:00Z</time>
      </trkpt>
      <trkpt lat="45.52755" lon="3.18545">
        <ele>559.12665</ele>
        <time>2012-08-24T13:52:04Z</time>
      </trkpt>
      <trkpt lat="45.52743" lon="3.18569">
        <ele>559.195</ele>
        <time>2012-08-24T13:52:08Z</time>
      </trkpt>
      <trkpt lat="45.5273" lon="3.1859">
        <ele>559.91705</ele>
        <time>2012-08-24T13:52:12Z</time>
      </trkpt>
      <trkpt lat="45.52718" lon="3.18609">
        <ele>560.44904</ele>
        <time>2012-08-24T13:52:16Z</time>
      </trkpt>
      <trkpt lat="45.52705" lon="3.18629">
        <ele>560.91907</ele>
        <time>2012-08-24T13:52:21Z</time>
      </trkpt>
      <trkpt lat="45.52689" lon="3.18651">
        <ele>560.9889</ele>
        <time>2012-08-24T13:52:26Z</time>
      </trkpt>
      <trkpt lat="45.52679" lon="3.18672">
        <ele>560.5101</ele>
        <time>2012-08-24T13:52:30Z</time>
      </trkpt>
      <trkpt lat="45.52667" lon="3.18693">
        <ele>559.8093</ele>
        <time>2012-08-24T13:52:34Z</time>
      </trkpt>
      <trkpt lat="45.52654" lon="3.18717">
        <ele>560.1431</ele>
        <time>2012-08-24T13:52:38Z</time>
      </trkpt>
      <trkpt lat="45.52639" lon="3.18744">
        <ele>559.9421</ele>
        <time>2012-08-24T13:52:42Z</time>
      </trkpt>
      <trkpt lat="45.52632" lon="3.18769">
        <ele>559.587</ele>
        <time>2012-08-24T13:52:45Z</time>
      </trkpt>
      <trkpt lat="45.52619" lon="3.18796">
        <ele>559.0005</ele>
        <time>2012-08-24T13:52:49Z</time>
      </trkpt>
      <trkpt lat="45.52617" lon="3.18828">
        <ele>558.21686</ele>
        <time>2012-08-24T13:52:53Z</time>
      </trkpt>
      <trkpt lat="45.52615" lon="3.18863">
        <ele>557.717</ele>
        <time>2012-08-24T13:52:57Z</time>
      </trkpt>
      <trkpt lat="45.52612" lon="3.1889">
        <ele>557.3514</ele>
        <time>2012-08-24T13:53:00Z</time>
      </trkpt>
      <trkpt lat="45.52605" lon="3.18917">
        <ele>557.42065</ele>
        <time>2012-08-24T13:53:03Z</time>
      </trkpt>
      <trkpt lat="45.52598" lon="3.18941">
        <ele>557.41705</ele>
        <time>2012-08-24T13:53:06Z</time>
      </trkpt>
      <trkpt lat="45.52584" lon="3.18964">
        <ele>557.79205</ele>
        <time>2012-08-24T13:53:09Z</time>
      </trkpt>
      <trkpt lat="45.52575" lon="3.1899">
        <ele>558.3597</ele>
        <time>2012-08-24T13:53:12Z</time>
      </trkpt>
      <trkpt lat="45.52565" lon="3.19014">
        <ele>558.2695</ele>
        <time>2012-08-24T13:53:15Z</time>
      </trkpt>
      <trkpt lat="45.52557" lon="3.19041">
        <ele>558.12354</ele>
        <time>2012-08-24T13:53:18Z</time>
      </trkpt>
      <trkpt lat="45.52545" lon="3.19066">
        <ele>558.3198</ele>
        <time>2012-08-24T13:53:21Z</time>
      </trkpt>
      <trkpt lat="45.52536" lon="3.19093">
        <ele>558.3495</ele>
        <time>2012-08-24T13:53:24Z</time>
      </trkpt>
      <trkpt lat="45.52528" lon="3.19121">
        <ele>558.4355</ele>
        <time>2012-08-24T13:53:27Z</time>
      </trkpt>
      <trkpt lat="45.52521" lon="3.19149">
        <ele>558.10144</ele>
        <time>2012-08-24T13:53:30Z</time>
      </trkpt>
      <trkpt lat="45.52515" lon="3.19176">
        <ele>557.8058</ele>
        <time>2012-08-24T13:53:33Z</time>
      </trkpt>
      <trkpt lat="45.52508" lon="3.19204">
        <ele>557.6186</ele>
        <time>2012-08-24T13:53:36Z</time>
      </trkpt>
      <trkpt lat="45.52504" lon="3.19231">
        <ele>557.0771</ele>
        <time>2012-08-24T13:53:39Z</time>
      </trkpt>
      <trkpt lat="45.52499" lon="3.1926">
        <ele>556.794</ele>
        <time>2012-08-24T13:53:42Z</time>
      </trkpt>
      <trkpt lat="45.52496" lon="3.1929">
        <ele>556.3902</ele>
        <time>2012-08-24T13:53:45Z</time>
      </trkpt>
      <trkpt lat="45.52491" lon="3.19318">
        <ele>555.81354</ele>
        <time>2012-08-24T13:53:48Z</time>
      </trkpt>
      <trkpt lat="45.52475" lon="3.19339">
        <ele>555.47687</ele>
        <time>2012-08-24T13:53:52Z</time>
      </trkpt>
      <trkpt lat="45.5246" lon="3.19356">
        <ele>555.19806</ele>
        <time>2012-08-24T13:53:56Z</time>
      </trkpt>
      <trkpt lat="45.52447" lon="3.19374">
        <ele>555.07855</ele>
        <time>2012-08-24T13:54:00Z</time>
      </trkpt>
      <trkpt lat="45.52432" lon="3.19391">
        <ele>554.8368</ele>
        <time>2012-08-24T13:54:03Z</time>
      </trkpt>
      <trkpt lat="45.52413" lon="3.19408">
        <ele>554.7926</ele>
        <time>2012-08-24T13:54:06Z</time>
      </trkpt>
      <trkpt lat="45.52399" lon="3.19426">
        <ele>554.9005</ele>
        <time>2012-08-24T13:54:09Z</time>
      </trkpt>
      <trkpt lat="45.52384" lon="3.19445">
        <ele>554.921</ele>
        <time>2012-08-24T13:54:12Z</time>
      </trkpt>
      <trkpt lat="45.5237" lon="3.19463">
        <ele>554.5797</ele>
        <time>2012-08-24T13:54:15Z</time>
      </trkpt>
      <trkpt lat="45.52355" lon="3.19484">
        <ele>553.4857</ele>
        <time>2012-08-24T13:54:18Z</time>
      </trkpt>
      <trkpt lat="45.52338" lon="3.19505">
        <ele>552.4882</ele>
        <time>2012-08-24T13:54:21Z</time>
      </trkpt>
      <trkpt lat="45.52322" lon="3.1953">
        <ele>550.76117</ele>
        <time>2012-08-24T13:54:24Z</time>
      </trkpt>
      <trkpt lat="45.52305" lon="3.19559">
        <ele>548.25757</ele>
        <time>2012-08-24T13:54:27Z</time>
      </trkpt>
      <trkpt lat="45.52293" lon="3.19581">
        <ele>546.5176</ele>
        <time>2012-08-24T13:54:29Z</time>
      </trkpt>
      <trkpt lat="45.5228" lon="3.19605">
        <ele>544.74506</ele>
        <time>2012-08-24T13:54:31Z</time>
      </trkpt>
      <trkpt lat="45.52266" lon="3.19627">
        <ele>543.4105</ele>
        <time>2012-08-24T13:54:33Z</time>
      </trkpt>
      <trkpt lat="45.5225" lon="3.19641">
        <ele>542.6411</ele>
        <time>2012-08-24T13:54:35Z</time>
      </trkpt>
      <trkpt lat="45.52227" lon="3.19651">
        <ele>542.20355</ele>
        <time>2012-08-24T13:54:39Z</time>
      </trkpt>
      <trkpt lat="45.52204" lon="3.19657">
        <ele>542.9866</ele>
        <time>2012-08-24T13:54:43Z</time>
      </trkpt>
      <trkpt lat="45.52183" lon="3.19661">
        <ele>544.2751</ele>
        <time>2012-08-24T13:54:48Z</time>
      </trkpt>
      <trkpt lat="45.52162" lon="3.19664">
        <ele>545.1203</ele>
        <time>2012-08-24T13:54:53Z</time>
      </trkpt>
      <trkpt lat="45.5214" lon="3.19669">
        <ele>545.9457</ele>
        <time>2012-08-24T13:54:58Z</time>
      </trkpt>
      <trkpt lat="45.52118" lon="3.19675">
        <ele>546.8828</ele>
        <time>2012-08-24T13:55:03Z</time>
      </trkpt>
      <trkpt lat="45.52098" lon="3.19685">
        <ele>547.58746</ele>
        <time>2012-08-24T13:55:07Z</time>
      </trkpt>
      <trkpt lat="45.5208" lon="3.19703">
        <ele>546.55176</ele>
        <time>2012-08-24T13:55:11Z</time>
      </trkpt>
      <trkpt lat="45.52067" lon="3.19724">
        <ele>545.15753</ele>
        <time>2012-08-24T13:55:16Z</time>
      </trkpt>
      <trkpt lat="45.5206" lon="3.19748">
        <ele>544.8263</ele>
        <time>2012-08-24T13:55:22Z</time>
      </trkpt>
      <trkpt lat="45.5205" lon="3.1977">
        <ele>544.67126</ele>
        <time>2012-08-24T13:55:28Z</time>
      </trkpt>
      <trkpt lat="45.52033" lon="3.19788">
        <ele>544.3353</ele>
        <time>2012-08-24T13:55:32Z</time>
      </trkpt>
      <trkpt lat="45.52025" lon="3.19813">
        <ele>544.3331</ele>
        <time>2012-08-24T13:55:37Z</time>
      </trkpt>
      <trkpt lat="45.52016" lon="3.19836">
        <ele>544.2307</ele>
        <time>2012-08-24T13:55:41Z</time>
      </trkpt>
      <trkpt lat="45.52011" lon="3.19865">
        <ele>545.1493</ele>
        <time>2012-08-24T13:55:46Z</time>
      </trkpt>
      <trkpt lat="45.52006" lon="3.19894">
        <ele>546.1589</ele>
        <time>2012-08-24T13:55:52Z</time>
      </trkpt>
      <trkpt lat="45.52002" lon="3.19921">
        <ele>546.7305</ele>
        <time>2012-08-24T13:55:57Z</time>
      </trkpt>
      <trkpt lat="45.52001" lon="3.1995">
        <ele>546.65314</ele>
        <time>2012-08-24T13:56:02Z</time>
      </trkpt>
      <trkpt lat="45.52001" lon="3.19977">
        <ele>546.04126</ele>
        <time>2012-08-24T13:56:07Z</time>
      </trkpt>
      <trkpt lat="45.51999" lon="3.20007">
        <ele>546.2037</ele>
        <time>2012-08-24T13:56:13Z</time>
      </trkpt>
      <trkpt lat="45.51988" lon="3.20035">
        <ele>544.8943</ele>
        <time>2012-08-24T13:56:18Z</time>
      </trkpt>
      <trkpt lat="45.51979" lon="3.20059">
        <ele>543.8963</ele>
        <time>2012-08-24T13:56:23Z</time>
      </trkpt>
      <trkpt lat="45.51964" lon="3.20079">
        <ele>543.92645</ele>
        <time>2012-08-24T13:56:27Z</time>
      </trkpt>
      <trkpt lat="45.51949" lon="3.20101">
        <ele>544.0253</ele>
        <time>2012-08-24T13:56:32Z</time>
      </trkpt>
      <trkpt lat="45.51938" lon="3.20121">
        <ele>543.9243</ele>
        <time>2012-08-24T13:56:36Z</time>
      </trkpt>
      <trkpt lat="45.51929" lon="3.20144">
        <ele>543.76227</ele>
        <time>2012-08-24T13:56:40Z</time>
      </trkpt>
      <trkpt lat="45.51923" lon="3.20172">
        <ele>543.358</ele>
        <time>2012-08-24T13:56:45Z</time>
      </trkpt>
      <trkpt lat="45.51914" lon="3.20198">
        <ele>544.96454</ele>
        <time>2012-08-24T13:56:53Z</time>
      </trkpt>
      <trkpt lat="45.51905" lon="3.20221">
        <ele>544.9892</ele>
        <time>2012-08-24T13:56:58Z</time>
      </trkpt>
      <trkpt lat="45.51891" lon="3.20246">
        <ele>544.7536</ele>
        <time>2012-08-24T13:57:04Z</time>
      </trkpt>
      <trkpt lat="45.51876" lon="3.20267">
        <ele>544.3523</ele>
        <time>2012-08-24T13:57:09Z</time>
      </trkpt>
      <trkpt lat="45.51866" lon="3.20292">
        <ele>543.5948</ele>
        <time>2012-08-24T13:57:15Z</time>
      </trkpt>
      <trkpt lat="45.51847" lon="3.20291">
        <ele>543.8533</ele>
        <time>2012-08-24T13:57:25Z</time>
      </trkpt>
      <trkpt lat="45.51834" lon="3.20269">
        <ele>546.1319</ele>
        <time>2012-08-24T13:57:33Z</time>
      </trkpt>
      <trkpt lat="45.51823" lon="3.20245">
        <ele>547.4011</ele>
        <time>2012-08-24T13:57:40Z</time>
      </trkpt>
      <trkpt lat="45.51819" lon="3.20215">
        <ele>544.7692</ele>
        <time>2012-08-24T13:57:45Z</time>
      </trkpt>
      <trkpt lat="45.51806" lon="3.20192">
        <ele>540.6808</ele>
        <time>2012-08-24T13:57:49Z</time>
      </trkpt>
      <trkpt lat="45.51794" lon="3.20171">
        <ele>535.49255</ele>
        <time>2012-08-24T13:57:55Z</time>
      </trkpt>
      <trkpt lat="45.51781" lon="3.20147">
        <ele>532.1643</ele>
        <time>2012-08-24T13:58:00Z</time>
      </trkpt>
      <trkpt lat="45.51766" lon="3.20125">
        <ele>526.59674</ele>
        <time>2012-08-24T13:58:05Z</time>
      </trkpt>
      <trkpt lat="45.51752" lon="3.20107">
        <ele>521.92737</ele>
        <time>2012-08-24T13:58:11Z</time>
      </trkpt>
      <trkpt lat="45.51736" lon="3.20121">
        <ele>520.0809</ele>
        <time>2012-08-24T13:58:16Z</time>
      </trkpt>
      <trkpt lat="45.51718" lon="3.20141">
        <ele>518.08856</ele>
        <time>2012-08-24T13:58:21Z</time>
      </trkpt>
      <trkpt lat="45.51705" lon="3.20158">
        <ele>515.66815</ele>
        <time>2012-08-24T13:58:25Z</time>
      </trkpt>
      <trkpt lat="45.51692" lon="3.20176">
        <ele>514.0816</ele>
        <time>2012-08-24T13:58:29Z</time>
      </trkpt>
      <trkpt lat="45.51676" lon="3.20197">
        <ele>511.86716</ele>
        <time>2012-08-24T13:58:34Z</time>
      </trkpt>
      <trkpt lat="45.51661" lon="3.20214">
        <ele>509.93872</ele>
        <time>2012-08-24T13:58:38Z</time>
      </trkpt>
      <trkpt lat="45.51643" lon="3.20236">
        <ele>507.96567</ele>
        <time>2012-08-24T13:58:42Z</time>
      </trkpt>
      <trkpt lat="45.51629" lon="3.20255">
        <ele>506.7907</ele>
        <time>2012-08-24T13:58:45Z</time>
      </trkpt>
      <trkpt lat="45.51615" lon="3.20275">
        <ele>505.31223</ele>
        <time>2012-08-24T13:58:48Z</time>
      </trkpt>
      <trkpt lat="45.51601" lon="3.20297">
        <ele>504.67444</ele>
        <time>2012-08-24T13:58:51Z</time>
      </trkpt>
      <trkpt lat="45.51589" lon="3.20319">
        <ele>503.98193</ele>
        <time>2012-08-24T13:58:54Z</time>
      </trkpt>
      <trkpt lat="45.51577" lon="3.20338">
        <ele>503.32883</ele>
        <time>2012-08-24T13:58:57Z</time>
      </trkpt>
      <trkpt lat="45.5156" lon="3.20362">
        <ele>502.51294</ele>
        <time>2012-08-24T13:59:01Z</time>
      </trkpt>
      <trkpt lat="45.51547" lon="3.20386">
        <ele>501.61063</ele>
        <time>2012-08-24T13:59:05Z</time>
      </trkpt>
      <trkpt lat="45.51533" lon="3.20403">
        <ele>500.8056</ele>
        <time>2012-08-24T13:59:09Z</time>
      </trkpt>
      <trkpt lat="45.51514" lon="3.20412">
        <ele>499.0462</ele>
        <time>2012-08-24T13:59:13Z</time>
      </trkpt>
      <trkpt lat="45.51491" lon="3.20426">
        <ele>497.36685</ele>
        <time>2012-08-24T13:59:17Z</time>
      </trkpt>
      <trkpt lat="45.51475" lon="3.20441">
        <ele>496.73654</ele>
        <time>2012-08-24T13:59:20Z</time>
      </trkpt>
      <trkpt lat="45.5146" lon="3.20458">
        <ele>495.68936</ele>
        <time>2012-08-24T13:59:23Z</time>
      </trkpt>
      <trkpt lat="45.51446" lon="3.20476">
        <ele>494.98508</ele>
        <time>2012-08-24T13:59:26Z</time>
      </trkpt>
      <trkpt lat="45.51429" lon="3.20494">
        <ele>494.29324</ele>
        <time>2012-08-24T13:59:30Z</time>
      </trkpt>
      <trkpt lat="45.51423" lon="3.20518">
        <ele>493.46365</ele>
        <time>2012-08-24T13:59:35Z</time>
      </trkpt>
      <trkpt lat="45.51434" lon="3.20545">
        <ele>493.65204</ele>
        <time>2012-08-24T13:59:40Z</time>
      </trkpt>
      <trkpt lat="45.51444" lon="3.20568">
        <ele>493.9492</ele>
        <time>2012-08-24T13:59:45Z</time>
      </trkpt>
      <trkpt lat="45.51453" lon="3.20594">
        <ele>494.42108</ele>
        <time>2012-08-24T13:59:50Z</time>
      </trkpt>
      <trkpt lat="45.51462" lon="3.20621">
        <ele>495.42847</ele>
        <time>2012-08-24T13:59:55Z</time>
      </trkpt>
      <trkpt lat="45.5147" lon="3.20649">
        <ele>496.5605</ele>
        <time>2012-08-24T14:00:00Z</time>
      </trkpt>
      <trkpt lat="45.51474" lon="3.2068">
        <ele>498.18515</ele>
        <time>2012-08-24T14:00:06Z</time>
      </trkpt>
      <trkpt lat="45.51473" lon="3.20707">
        <ele>500.5955</ele>
        <time>2012-08-24T14:00:12Z</time>
      </trkpt>
      <trkpt lat="45.51472" lon="3.20737">
        <ele>502.8066</ele>
        <time>2012-08-24T14:00:18Z</time>
      </trkpt>
      <trkpt lat="45.5147" lon="3.20765">
        <ele>504.65253</ele>
        <time>2012-08-24T14:00:24Z</time>
      </trkpt>
      <trkpt lat="45.51468" lon="3.20791">
        <ele>506.15604</ele>
        <time>2012-08-24T14:00:29Z</time>
      </trkpt>
      <trkpt lat="45.51465" lon="3.20819">
        <ele>508.34445</ele>
        <time>2012-08-24T14:00:35Z</time>
      </trkpt>
      <trkpt lat="45.5147" lon="3.20845">
        <ele>513.6473</ele>
        <time>2012-08-24T14:00:42Z</time>
      </trkpt>
      <trkpt lat="45.5147" lon="3.20871">
        <ele>517.6858</ele>
        <time>2012-08-24T14:00:47Z</time>
      </trkpt>
      <trkpt lat="45.51444" lon="3.20892">
        <ele>517.34155</ele>
        <time>2012-08-24T14:00:54Z</time>
      </trkpt>
      <trkpt lat="45.51425" lon="3.20896">
        <ele>515.5993</ele>
        <time>2012-08-24T14:00:57Z</time>
      </trkpt>
      <trkpt lat="45.51403" lon="3.20901">
        <ele>513.61584</ele>
        <time>2012-08-24T14:01:00Z</time>
      </trkpt>
      <trkpt lat="45.5138" lon="3.20908">
        <ele>512.2416</ele>
        <time>2012-08-24T14:01:03Z</time>
      </trkpt>
      <trkpt lat="45.51355" lon="3.20915">
        <ele>510.08835</ele>
        <time>2012-08-24T14:01:06Z</time>
      </trkpt>
      <trkpt lat="45.51329" lon="3.20923">
        <ele>507.76593</ele>
        <time>2012-08-24T14:01:09Z</time>
      </trkpt>
      <trkpt lat="45.51304" lon="3.20928">
        <ele>506.5221</ele>
        <time>2012-08-24T14:01:12Z</time>
      </trkpt>
      <trkpt lat="45.5128" lon="3.20934">
        <ele>505.39108</ele>
        <time>2012-08-24T14:01:15Z</time>
      </trkpt>
      <trkpt lat="45.51258" lon="3.20942">
        <ele>503.4577</ele>
        <time>2012-08-24T14:01:18Z</time>
      </trkpt>
      <trkpt lat="45.51235" lon="3.20949">
        <ele>502.2483</ele>
        <time>2012-08-24T14:01:21Z</time>
      </trkpt>
      <trkpt lat="45.51213" lon="3.20955">
        <ele>501.3568</ele>
        <time>2012-08-24T14:01:24Z</time>
      </trkpt>
      <trkpt lat="45.51193" lon="3.20958">
        <ele>501.1776</ele>
        <time>2012-08-24T14:01:27Z</time>
      </trkpt>
      <trkpt lat="45.51175" lon="3.20963">
        <ele>501.18793</ele>
        <time>2012-08-24T14:01:30Z</time>
      </trkpt>
      <trkpt lat="45.51154" lon="3.20969">
        <ele>501.29373</ele>
        <time>2012-08-24T14:01:34Z</time>
      </trkpt>
      <trkpt lat="45.51134" lon="3.20972">
        <ele>501.69815</ele>
        <time>2012-08-24T14:01:39Z</time>
      </trkpt>
      <trkpt lat="45.51113" lon="3.20978">
        <ele>502.0108</ele>
        <time>2012-08-24T14:01:44Z</time>
      </trkpt>
      <trkpt lat="45.51092" lon="3.20986">
        <ele>502.77283</ele>
        <time>2012-08-24T14:01:50Z</time>
      </trkpt>
      <trkpt lat="45.51072" lon="3.20995">
        <ele>503.39005</ele>
        <time>2012-08-24T14:01:55Z</time>
      </trkpt>
      <trkpt lat="45.51054" lon="3.21002">
        <ele>503.65613</ele>
        <time>2012-08-24T14:01:59Z</time>
      </trkpt>
      <trkpt lat="45.51038" lon="3.21013">
        <ele>503.29187</ele>
        <time>2012-08-24T14:02:03Z</time>
      </trkpt>
      <trkpt lat="45.51021" lon="3.21025">
        <ele>502.96216</ele>
        <time>2012-08-24T14:02:07Z</time>
      </trkpt>
      <trkpt lat="45.51004" lon="3.21036">
        <ele>502.5797</ele>
        <time>2012-08-24T14:02:11Z</time>
      </trkpt>
      <trkpt lat="45.50988" lon="3.21048">
        <ele>502.89777</ele>
        <time>2012-08-24T14:02:15Z</time>
      </trkpt>
      <trkpt lat="45.50971" lon="3.21059">
        <ele>503.43005</ele>
        <time>2012-08-24T14:02:19Z</time>
      </trkpt>
      <trkpt lat="45.50952" lon="3.21071">
        <ele>503.94614</ele>
        <time>2012-08-24T14:02:24Z</time>
      </trkpt>
      <trkpt lat="45.50934" lon="3.21077">
        <ele>504.61224</ele>
        <time>2012-08-24T14:02:29Z</time>
      </trkpt>
      <trkpt lat="45.50914" lon="3.2108">
        <ele>504.99768</ele>
        <time>2012-08-24T14:02:35Z</time>
      </trkpt>
      <trkpt lat="45.50895" lon="3.21077">
        <ele>505.03964</ele>
        <time>2012-08-24T14:02:41Z</time>
      </trkpt>
      <trkpt lat="45.50876" lon="3.21076">
        <ele>504.84653</ele>
        <time>2012-08-24T14:02:46Z</time>
      </trkpt>
      <trkpt lat="45.50855" lon="3.21074">
        <ele>505.04846</ele>
        <time>2012-08-24T14:02:52Z</time>
      </trkpt>
      <trkpt lat="45.50836" lon="3.21076">
        <ele>505.50412</ele>
        <time>2012-08-24T14:02:57Z</time>
      </trkpt>
      <trkpt lat="45.50817" lon="3.21085">
        <ele>505.62863</ele>
        <time>2012-08-24T14:03:03Z</time>
      </trkpt>
      <trkpt lat="45.50802" lon="3.21102">
        <ele>507.5039</ele>
        <time>2012-08-24T14:03:10Z</time>
      </trkpt>
      <trkpt lat="45.50789" lon="3.21121">
        <ele>508.95172</ele>
        <time>2012-08-24T14:03:17Z</time>
      </trkpt>
      <trkpt lat="45.50773" lon="3.21137">
        <ele>509.88367</ele>
        <time>2012-08-24T14:03:23Z</time>
      </trkpt>
      <trkpt lat="45.50761" lon="3.21158">
        <ele>511.6733</ele>
        <time>2012-08-24T14:03:30Z</time>
      </trkpt>
      <trkpt lat="45.50749" lon="3.21182">
        <ele>512.4764</ele>
        <time>2012-08-24T14:03:37Z</time>
      </trkpt>
      <trkpt lat="45.50737" lon="3.21205">
        <ele>513.41205</ele>
        <time>2012-08-24T14:03:43Z</time>
      </trkpt>
      <trkpt lat="45.50728" lon="3.21229">
        <ele>514.0427</ele>
        <time>2012-08-24T14:03:48Z</time>
      </trkpt>
      <trkpt lat="45.50717" lon="3.21256">
        <ele>514.6203</ele>
        <time>2012-08-24T14:03:53Z</time>
      </trkpt>
      <trkpt lat="45.50709" lon="3.21279">
        <ele>515.6126</ele>
        <time>2012-08-24T14:03:57Z</time>
      </trkpt>
      <trkpt lat="45.50702" lon="3.21307">
        <ele>516.116</ele>
        <time>2012-08-24T14:04:01Z</time>
      </trkpt>
      <trkpt lat="45.50696" lon="3.21334">
        <ele>516.2972</ele>
        <time>2012-08-24T14:04:05Z</time>
      </trkpt>
      <trkpt lat="45.50693" lon="3.21362">
        <ele>516.6607</ele>
        <time>2012-08-24T14:04:09Z</time>
      </trkpt>
      <trkpt lat="45.50689" lon="3.21393">
        <ele>517.1605</ele>
        <time>2012-08-24T14:04:13Z</time>
      </trkpt>
      <trkpt lat="45.50685" lon="3.21419">
        <ele>517.0628</ele>
        <time>2012-08-24T14:04:17Z</time>
      </trkpt>
      <trkpt lat="45.50681" lon="3.21448">
        <ele>516.51196</ele>
        <time>2012-08-24T14:04:21Z</time>
      </trkpt>
      <trkpt lat="45.50673" lon="3.21472">
        <ele>515.6279</ele>
        <time>2012-08-24T14:04:25Z</time>
      </trkpt>
      <trkpt lat="45.50666" lon="3.21498">
        <ele>515.7232</ele>
        <time>2012-08-24T14:04:29Z</time>
      </trkpt>
      <trkpt lat="45.5066" lon="3.21524">
        <ele>517.6084</ele>
        <time>2012-08-24T14:04:33Z</time>
      </trkpt>
      <trkpt lat="45.50652" lon="3.21554">
        <ele>519.6492</ele>
        <time>2012-08-24T14:04:38Z</time>
      </trkpt>
      <trkpt lat="45.50644" lon="3.21578">
        <ele>520.09283</ele>
        <time>2012-08-24T14:04:42Z</time>
      </trkpt>
      <trkpt lat="45.50633" lon="3.21604">
        <ele>520.6859</ele>
        <time>2012-08-24T14:04:46Z</time>
      </trkpt>
      <trkpt lat="45.50622" lon="3.21629">
        <ele>521.1224</ele>
        <time>2012-08-24T14:04:50Z</time>
      </trkpt>
      <trkpt lat="45.50612" lon="3.21651">
        <ele>521.41986</ele>
        <time>2012-08-24T14:04:54Z</time>
      </trkpt>
      <trkpt lat="45.50603" lon="3.21674">
        <ele>521.223</ele>
        <time>2012-08-24T14:04:58Z</time>
      </trkpt>
      <trkpt lat="45.50611" lon="3.21698">
        <ele>520.6259</ele>
        <time>2012-08-24T14:05:04Z</time>
      </trkpt>
      <trkpt lat="45.50614" lon="3.21725">
        <ele>520.78687</ele>
        <time>2012-08-24T14:05:11Z</time>
      </trkpt>
      <trkpt lat="45.5061" lon="3.21753">
        <ele>521.27344</ele>
        <time>2012-08-24T14:05:19Z</time>
      </trkpt>
      <trkpt lat="45.50601" lon="3.21777">
        <ele>523.3293</ele>
        <time>2012-08-24T14:05:29Z</time>
      </trkpt>
      <trkpt lat="45.50603" lon="3.21803">
        <ele>532.84503</ele>
        <time>2012-08-24T14:05:47Z</time>
      </trkpt>
      <trkpt lat="45.50608" lon="3.21828">
        <ele>539.0639</ele>
        <time>2012-08-24T14:06:03Z</time>
      </trkpt>
      <trkpt lat="45.50617" lon="3.21851">
        <ele>541.449</ele>
        <time>2012-08-24T14:06:16Z</time>
      </trkpt>
      <trkpt lat="45.50632" lon="3.21869">
        <ele>541.997</ele>
        <time>2012-08-24T14:06:27Z</time>
      </trkpt>
      <trkpt lat="45.5065" lon="3.21872">
        <ele>545.2701</ele>
        <time>2012-08-24T14:06:38Z</time>
      </trkpt>
      <trkpt lat="45.50668" lon="3.2188">
        <ele>548.5981</ele>
        <time>2012-08-24T14:06:49Z</time>
      </trkpt>
      <trkpt lat="45.50686" lon="3.2188">
        <ele>551.4924</ele>
        <time>2012-08-24T14:07:00Z</time>
      </trkpt>
      <trkpt lat="45.50673" lon="3.219">
        <ele>551.0673</ele>
        <time>2012-08-24T14:07:10Z</time>
      </trkpt>
      <trkpt lat="45.50657" lon="3.21912">
        <ele>552.05945</ele>
        <time>2012-08-24T14:07:18Z</time>
      </trkpt>
      <trkpt lat="45.50645" lon="3.21933">
        <ele>554.0855</ele>
        <time>2012-08-24T14:07:25Z</time>
      </trkpt>
      <trkpt lat="45.50631" lon="3.21951">
        <ele>554.5357</ele>
        <time>2012-08-24T14:07:31Z</time>
      </trkpt>
      <trkpt lat="45.5062" lon="3.21973">
        <ele>554.4933</ele>
        <time>2012-08-24T14:07:36Z</time>
      </trkpt>
      <trkpt lat="45.50616" lon="3.22">
        <ele>554.7672</ele>
        <time>2012-08-24T14:07:42Z</time>
      </trkpt>
      <trkpt lat="45.5061" lon="3.22027">
        <ele>555.15247</ele>
        <time>2012-08-24T14:07:48Z</time>
      </trkpt>
    </trkseg>
  </trk>
</gpx>